Data Archive--September, 2003

Date Time Heat Index Current Temp Wind Chill High Temp Low Temp Humidity Dew Point Wind Speed Gust Wind Direction Rain Barometer
09/01/2003 12:00 a 63.8 63.8 63.8 64.0 63.5 81 57.9 0.0 0.0 --- 0.00 30.116
09/01/2003 12:30 a 62.9 62.9 62.9 63.5 62.2 83 57.7 0.0 0.0 --- 0.00 30.122
09/01/2003 1:00 a 62.1 62.1 62.1 62.2 62.0 84 57.2 0.0 0.0 --- 0.00 30.118
09/01/2003 1:30 a 62.1 62.1 62.1 62.2 61.9 85 57.5 0.0 0.0 --- 0.00 30.104
09/01/2003 2:00 a 62.0 62.0 62.0 62.5 61.8 85 57.4 0.0 0.0 --- 0.00 30.099
09/01/2003 2:30 a 62.8 62.8 62.8 63.0 62.5 86 58.6 0.0 0.0 --- 0.00 30.077
09/01/2003 3:00 a 62.9 62.9 62.9 63.1 62.8 85 58.3 0.0 0.0 --- 0.00 30.078
09/01/2003 3:30 a 63.2 63.2 63.2 63.3 63.0 84 58.3 0.0 0.0 --- 0.00 30.070
09/01/2003 4:00 a 63.6 63.6 63.6 63.7 63.3 85 59.0 0.0 0.0 --- 0.00 30.070
09/01/2003 4:30 a 62.9 62.9 62.9 63.6 62.2 95 61.4 0.0 0.0 --- 0.00 30.066
09/01/2003 5:00 a 62.3 62.3 62.3 62.4 62.1 95 60.9 0.0 0.0 --- 0.00 30.068
09/01/2003 5:30 a 62.1 62.1 62.1 62.4 61.9 97 61.2 0.0 0.0 --- 0.03 30.062
09/01/2003 6:00 a 62.0 62.0 62.0 62.1 61.9 98 61.4 0.0 0.0 --- 0.00 30.068
09/01/2003 6:30 a 62.3 62.3 62.3 62.5 62.1 98 61.7 0.0 0.0 --- 0.01 30.074
09/01/2003 7:00 a 62.6 62.6 62.6 62.8 62.4 98 62.0 0.0 0.0 --- 0.01 30.075
09/01/2003 7:30 a 63.0 63.0 63.0 63.2 62.7 98 62.4 0.0 0.0 --- 0.01 30.067
09/01/2003 8:00 a 63.5 63.5 63.5 63.8 63.2 98 62.9 0.0 0.0 --- 0.00 30.064
09/01/2003 8:30 a 64.1 64.1 64.1 64.5 63.7 98 63.5 0.0 0.0 --- 0.01 30.059
09/01/2003 9:00 a 64.7 64.7 64.7 65.0 64.5 98 64.1 0.0 0.0 --- 0.04 30.055
09/01/2003 9:30 a 64.8 64.8 64.8 65.1 64.4 98 64.2 0.0 1.0 --- 0.03 30.050
09/01/2003 10:00 a 64.4 64.4 64.4 64.5 64.3 98 63.8 0.0 1.0 NE 0.00 30.048
09/01/2003 10:30 a 64.4 64.4 64.4 64.5 64.4 98 63.8 0.0 1.0 --- 0.01 30.048
09/01/2003 11:00 a 64.3 64.3 64.3 64.5 64.2 98 63.7 0.0 0.0 --- 0.01 30.048
09/01/2003 11:30 a 64.3 64.3 64.3 64.4 64.2 98 63.7 0.0 0.0 --- 0.01 30.039
09/01/2003 12:00 p 64.0 64.0 64.0 64.3 63.7 98 63.4 0.0 3.0 N 0.00 30.033
09/01/2003 12:30 p 63.5 63.5 63.5 63.7 63.4 99 63.2 0.0 2.0 N 0.00 30.022
09/01/2003 1:00 p 63.5 63.5 63.5 63.6 63.4 99 63.2 0.0 2.0 ENE 0.00 30.019
09/01/2003 1:30 p 63.5 63.5 63.5 63.7 63.4 99 63.2 0.0 0.0 --- 0.01 30.017
09/01/2003 2:00 p 63.6 63.6 63.6 63.8 63.5 98 63.0 0.0 0.0 --- 0.00 30.018
09/01/2003 2:30 p 63.8 63.8 63.8 63.9 63.7 98 63.2 0.0 1.0 E 0.00 30.012
09/01/2003 3:00 p 63.9 63.9 63.9 64.0 63.7 98 63.3 0.0 0.0 --- 0.01 29.999
09/01/2003 3:30 p 64.0 64.0 64.0 64.1 63.8 98 63.4 0.0 1.0 --- 0.01 29.996
09/01/2003 4:00 p 63.8 63.8 63.8 64.1 63.6 99 63.5 0.0 0.0 --- 0.02 29.985
09/01/2003 4:30 p 64.0 64.0 64.0 64.2 63.9 99 63.7 0.0 1.0 E 0.00 29.976
09/01/2003 5:00 p 63.9 63.9 63.9 64.1 63.7 99 63.6 0.0 2.0 E 0.00 29.974
09/01/2003 5:30 p 63.5 63.5 63.5 63.7 63.4 98 62.9 0.0 1.0 E 0.00 29.970
09/01/2003 6:00 p 63.4 63.4 63.4 63.5 63.3 99 63.1 0.0 0.0 --- 0.00 29.963
09/01/2003 6:30 p 63.3 63.3 63.3 63.3 63.2 98 62.7 0.0 1.0 E 0.00 29.962
09/01/2003 7:00 p 63.1 63.1 63.1 63.2 63.0 99 62.8 0.0 1.0 --- 0.00 29.958
09/01/2003 7:30 p 63.1 63.1 63.1 63.2 63.0 99 62.8 0.0 0.0 --- 0.00 29.960
09/01/2003 8:00 p 63.2 63.2 63.2 63.2 63.1 99 62.9 0.0 0.0 --- 0.00 29.962
09/01/2003 8:30 p 63.1 63.1 63.1 63.2 63.0 99 62.8 0.0 0.0 --- 0.08 29.958
09/01/2003 9:00 p 63.1 63.1 63.1 63.1 63.0 99 62.8 0.0 0.0 --- 0.01 29.961
09/01/2003 9:30 p 63.1 63.1 63.1 63.2 63.1 99 62.8 0.0 0.0 --- 0.00 29.953
09/01/2003 10:00 p 63.1 63.1 63.1 63.1 63.0 99 62.8 0.0 0.0 --- 0.01 29.948
09/01/2003 10:30 p 63.0 63.0 63.0 63.0 63.0 99 62.7 0.0 0.0 --- 0.00 29.942
09/01/2003 11:00 p 62.9 62.9 62.9 63.1 62.8 99 62.6 0.0 0.0 --- 0.01 29.936
09/01/2003 11:30 p 62.8 62.8 62.8 62.9 62.8 99 62.5 0.0 0.0 --- 0.02 29.944
09/02/2003 12:00 a 62.8 62.8 62.8 62.9 62.7 99 62.5 0.0 0.0 --- 0.04 29.935
09/02/2003 12:30 a 62.7 62.7 62.7 62.8 62.5 99 62.4 0.0 0.0 --- 0.09 29.922
09/02/2003 1:00 a 62.4 62.4 62.4 62.6 62.4 99 62.1 0.0 0.0 --- 0.08 29.909
09/02/2003 1:30 a 62.5 62.5 62.5 62.6 62.4 99 62.2 0.0 0.0 --- 0.02 29.906
09/02/2003 2:00 a 62.3 62.3 62.3 62.4 62.2 99 62.0 0.0 1.0 --- 0.00 29.908
09/02/2003 2:30 a 62.2 62.2 62.2 62.2 62.1 99 61.9 0.0 1.0 --- 0.00 29.895
09/02/2003 3:00 a 61.9 61.9 61.9 62.1 61.7 99 61.6 0.0 0.0 --- 0.01 29.889
09/02/2003 3:30 a 61.7 61.7 61.7 61.8 61.6 99 61.4 0.0 0.0 --- 0.00 29.886
09/02/2003 4:00 a 61.8 61.8 61.8 61.9 61.7 99 61.5 0.0 0.0 --- 0.00 29.889
09/02/2003 4:30 a 61.9 61.9 61.9 62.0 61.8 99 61.6 0.0 0.0 --- 0.00 29.880
09/02/2003 5:00 a 61.9 61.9 61.9 62.0 61.8 99 61.6 0.0 2.0 E 0.00 29.874
09/02/2003 5:30 a 61.7 61.7 61.7 61.8 61.5 99 61.4 0.0 1.0 --- 0.00 29.865
09/02/2003 6:00 a 61.4 61.4 61.4 61.6 61.4 99 61.1 0.0 1.0 --- 0.00 29.853
09/02/2003 6:30 a 61.4 61.4 61.4 61.5 61.3 100 61.4 0.0 0.0 --- 0.26 29.870
09/02/2003 7:00 a 61.5 61.5 61.5 61.6 61.4 99 61.2 0.0 0.0 --- 0.03 29.910
09/02/2003 7:30 a 61.4 61.4 61.4 61.5 61.3 99 61.1 0.0 0.0 --- 0.06 29.902
09/02/2003 8:00 a 61.5 61.5 61.5 61.7 61.3 99 61.2 0.0 0.0 --- 0.01 29.896
09/02/2003 8:30 a 61.4 61.4 61.4 61.7 61.0 100 61.4 0.0 2.0 E 0.00 29.913
09/02/2003 9:00 a 61.0 61.0 61.0 61.1 60.9 100 61.0 0.0 2.0 E 0.00 29.915
09/02/2003 9:30 a 60.6 60.6 60.6 60.9 60.4 99 60.3 0.0 1.0 E 0.00 29.933
09/02/2003 10:00 a 60.2 60.2 60.2 60.4 60.0 99 59.9 0.0 1.0 E 0.00 29.938
09/02/2003 10:30 a 59.8 59.8 59.8 60.0 59.5 100 59.8 0.0 1.0 E 0.01 29.954
09/02/2003 11:00 a 59.5 59.5 59.5 59.6 59.4 100 59.5 0.0 1.0 E 0.00 29.951
09/02/2003 11:30 a 59.5 59.5 59.5 59.6 59.4 100 59.5 0.0 1.0 E 0.00 29.957
09/02/2003 12:00 p 59.3 59.3 59.3 59.4 59.2 99 59.0 0.0 1.0 --- 0.00 29.960
09/02/2003 12:30 p 59.5 59.5 59.5 59.7 59.3 100 59.5 0.0 1.0 --- 0.00 29.963
09/02/2003 1:00 p 59.9 59.9 59.9 60.3 59.6 100 59.9 0.0 1.0 E 0.00 29.964
09/02/2003 1:30 p 60.6 60.6 60.6 60.9 60.3 99 60.3 0.0 1.0 E 0.00 29.971
09/02/2003 2:00 p 60.8 60.8 60.8 60.9 60.7 99 60.5 0.0 0.0 --- 0.00 29.971
09/02/2003 2:30 p 61.0 61.0 61.0 61.2 60.8 99 60.7 0.0 1.0 E 0.00 29.973
09/02/2003 3:00 p 61.1 61.1 61.1 61.3 60.9 99 60.8 0.0 1.0 --- 0.00 29.976
09/02/2003 3:30 p 61.0 61.0 61.0 61.1 60.8 99 60.7 0.0 0.0 --- 0.00 29.972
09/02/2003 4:00 p 61.1 61.1 61.1 61.2 61.0 99 60.8 0.0 0.0 --- 0.00 29.971
09/02/2003 4:30 p 61.2 61.2 61.2 61.3 61.1 99 60.9 0.0 0.0 --- 0.00 29.974
09/02/2003 5:00 p 61.3 61.3 61.3 61.5 61.2 99 61.0 0.0 1.0 --- 0.00 29.975
09/02/2003 5:30 p 61.4 61.4 61.4 61.5 61.3 99 61.1 0.0 0.0 --- 0.00 29.968
09/02/2003 6:00 p 61.4 61.4 61.4 61.5 61.4 99 61.1 0.0 2.0 E 0.00 29.987
09/02/2003 6:30 p 61.3 61.3 61.3 61.4 61.3 99 61.0 0.0 0.0 --- 0.00 29.986
09/02/2003 7:00 p 61.3 61.3 61.3 61.4 61.3 99 61.0 0.0 0.0 --- 0.00 29.990
09/02/2003 7:30 p 61.4 61.4 61.4 61.5 61.2 100 61.4 0.0 0.0 --- 0.00 29.997
09/02/2003 8:00 p 61.3 61.3 61.3 61.4 61.2 100 61.3 0.0 0.0 --- 0.00 29.994
09/02/2003 8:30 p 61.4 61.4 61.4 61.4 61.3 100 61.4 0.0 0.0 --- 0.00 29.996
09/02/2003 9:00 p 61.4 61.4 61.4 61.5 61.4 100 61.4 0.0 0.0 --- 0.01 30.000
09/02/2003 9:30 p 61.5 61.5 61.5 61.5 61.4 99 61.2 0.0 0.0 --- 0.00 30.006
09/02/2003 10:00 p 61.4 61.4 61.4 61.5 61.4 99 61.1 0.0 0.0 --- 0.01 30.008
09/02/2003 10:30 p 61.5 61.5 61.5 61.5 61.4 100 61.5 0.0 1.0 E 0.09 30.007
09/02/2003 11:00 p 61.5 61.5 61.5 61.5 61.4 100 61.5 0.0 0.0 --- 0.04 30.013
09/02/2003 11:30 p 61.3 61.3 61.3 61.4 61.2 100 61.3 0.0 0.0 --- 0.03 30.007
09/03/2003 12:00 a 61.2 61.2 61.2 61.2 61.2 100 61.2 0.0 0.0 --- 0.01 30.006
09/03/2003 12:30 a 61.1 61.1 61.1 61.2 61.0 100 61.1 0.0 1.0 E 0.01 30.002
09/03/2003 1:00 a 61.1 61.1 61.1 61.2 61.0 100 61.1 0.0 0.0 --- 0.00 29.995
09/03/2003 1:30 a 61.2 61.2 61.2 61.3 61.1 100 61.2 0.0 0.0 --- 0.00 29.996
09/03/2003 2:00 a 61.3 61.3 61.3 61.4 61.2 100 61.3 0.0 1.0 --- 0.00 29.986
09/03/2003 2:30 a 61.5 61.5 61.5 61.5 61.4 100 61.5 0.0 1.0 --- 0.01 29.982
09/03/2003 3:00 a 61.5 61.5 61.5 61.6 61.5 100 61.5 0.0 0.0 --- 0.00 29.972
09/03/2003 3:30 a 61.6 61.6 61.6 61.7 61.5 100 61.6 0.0 2.0 E 0.00 29.973
09/03/2003 4:00 a 61.7 61.7 61.7 61.7 61.6 100 61.7 0.0 2.0 E 0.00 29.970
09/03/2003 4:30 a 61.7 61.7 61.7 61.8 61.7 100 61.7 0.0 1.0 E 0.00 29.967
09/03/2003 5:00 a 61.8 61.8 61.8 61.9 61.7 100 61.8 0.0 1.0 E 0.03 29.959
09/03/2003 5:30 a 61.9 61.9 61.9 61.9 61.8 100 61.9 0.0 0.0 --- 0.17 29.963
09/03/2003 6:00 a 61.9 61.9 61.9 62.0 61.8 100 61.9 0.0 0.0 --- 0.08 29.962
09/03/2003 6:30 a 62.0 62.0 62.0 62.1 61.9 100 62.0 0.0 0.0 --- 0.00 29.963
09/03/2003 7:00 a -- 62.1 62.1 62.1 62.0 -- -- 0.0 0.0 --- 0.01 29.971
09/03/2003 7:30 a -- 62.2 62.2 62.4 62.1 -- -- 0.0 1.0 --- 0.00 29.968
09/03/2003 8:00 a -- 62.5 62.5 62.7 62.3 -- -- 0.0 1.0 --- 0.00 29.970
09/03/2003 8:30 a -- 62.7 62.7 62.8 62.7 -- -- 0.0 1.0 --- 0.00 29.972
09/03/2003 9:00 a 62.7 62.7 62.7 62.8 62.7 100 62.7 0.0 1.0 E 0.10 29.970
09/03/2003 9:30 a 63.1 63.1 63.1 63.3 62.8 100 63.1 0.0 0.0 --- 0.00 29.971
09/03/2003 10:00 a 63.4 63.4 63.4 63.5 63.2 100 63.4 0.0 1.0 --- 0.02 29.975
09/03/2003 10:30 a 63.6 63.6 63.6 63.7 63.4 100 63.6 0.0 0.0 --- 0.00 29.973
09/03/2003 11:00 a 63.8 63.8 63.8 64.0 63.6 100 63.8 0.0 1.0 E 0.01 29.972
09/03/2003 11:30 a 64.1 64.1 64.1 64.2 64.0 100 64.1 0.0 2.0 E 0.00 29.973
09/03/2003 12:00 p 64.1 64.1 64.1 64.2 64.0 100 64.1 0.0 2.0 N 0.00 29.963
09/03/2003 12:30 p 64.4 64.4 64.4 64.7 64.0 100 64.4 0.0 2.0 NE 0.00 29.952
09/03/2003 1:00 p 64.5 64.5 64.5 64.8 64.4 100 64.5 0.0 2.0 N 0.00 29.946
09/03/2003 1:30 p 64.7 64.7 64.7 64.7 64.5 100 64.7 0.0 1.0 N 0.00 29.938
09/03/2003 2:00 p 64.9 64.9 64.9 65.1 64.7 100 64.9 0.0 1.0 N 0.00 29.919
09/03/2003 2:30 p 65.0 65.0 65.0 65.2 64.9 100 65.0 0.0 3.0 N 0.00 29.918
09/03/2003 3:00 p 65.2 65.2 65.2 65.4 65.0 100 65.2 0.0 2.0 N 0.00 29.899
09/03/2003 3:30 p 65.4 65.4 65.4 65.6 65.3 100 65.4 0.0 2.0 NNW 0.00 29.887
09/03/2003 4:00 p 65.5 65.5 65.5 65.7 65.3 100 65.5 0.0 2.0 NNW 0.00 29.884
09/03/2003 4:30 p 65.4 65.4 65.4 65.4 65.3 100 65.4 0.0 2.0 NNW 0.00 29.880
09/03/2003 5:00 p 65.4 65.4 65.4 65.5 65.3 100 65.4 0.0 2.0 NNW 0.00 29.873
09/03/2003 5:30 p 65.6 65.6 65.6 65.7 65.4 100 65.6 0.0 2.0 NNW 0.00 29.876
09/03/2003 6:00 p 65.7 65.7 65.7 65.7 65.6 100 65.7 0.0 2.0 NNW 0.00 29.879
09/03/2003 6:30 p 65.7 65.7 65.7 65.8 65.7 100 65.7 0.0 1.0 NNW 0.00 29.877
09/03/2003 7:00 p 65.8 65.8 65.8 65.8 65.7 100 65.8 0.0 0.0 --- 0.01 29.866
09/03/2003 7:30 p 65.8 65.8 65.8 65.9 65.8 100 65.8 0.0 0.0 --- 0.00 29.854
09/03/2003 8:00 p 65.9 65.9 65.9 66.1 65.8 100 65.9 0.0 0.0 --- 0.00 29.840
09/03/2003 8:30 p 66.2 66.2 66.2 66.4 66.0 100 66.2 0.0 0.0 --- 0.00 29.842
09/03/2003 9:00 p 66.4 66.4 66.4 66.5 66.3 100 66.4 0.0 0.0 --- 0.00 29.844
09/03/2003 9:30 p 66.5 66.5 66.5 66.6 66.4 100 66.5 0.0 0.0 --- 0.00 29.831
09/03/2003 10:00 p 66.7 66.7 66.7 66.8 66.6 100 66.7 0.0 0.0 --- 0.00 29.823
09/03/2003 10:30 p 66.8 66.8 66.8 66.8 66.7 100 66.8 0.0 0.0 --- 0.00 29.807
09/03/2003 11:00 p 66.8 66.8 66.8 66.9 66.8 100 66.8 0.0 0.0 --- 0.00 29.797
09/03/2003 11:30 p 66.8 66.8 66.8 66.9 66.8 100 66.8 0.0 0.0 --- 0.00 29.789
09/04/2003 12:00 a 67.0 67.0 67.0 67.1 66.8 100 67.0 0.0 1.0 --- 0.00 29.787
09/04/2003 12:30 a 67.1 67.1 67.1 67.3 67.0 100 67.1 0.0 0.0 --- 0.00 29.766
09/04/2003 1:00 a 67.3 67.3 67.3 67.4 67.2 100 67.3 0.0 0.0 --- 0.00 29.752
09/04/2003 1:30 a 67.5 67.5 67.5 67.6 67.4 100 67.5 0.0 0.0 --- 0.00 29.739
09/04/2003 2:00 a 67.6 67.6 67.6 67.7 67.5 100 67.6 0.0 0.0 --- 0.00 29.728
09/04/2003 2:30 a 67.7 67.7 67.7 67.7 67.6 100 67.7 0.0 0.0 --- 0.00 29.712
09/04/2003 3:00 a 67.7 67.7 67.7 67.8 67.6 100 67.7 0.0 0.0 --- 0.00 29.696
09/04/2003 3:30 a 67.8 67.8 67.8 67.9 67.7 100 67.8 0.0 0.0 --- 0.00 29.691
09/04/2003 4:00 a 72.0 68.5 68.5 69.1 67.9 100 68.5 0.0 1.0 --- 0.00 29.683
09/04/2003 4:30 a 72.0 69.4 69.4 69.7 69.1 100 69.4 0.0 0.0 --- 0.00 29.675
09/04/2003 5:00 a 74.0 69.8 69.8 70.0 69.7 100 69.8 0.0 0.0 --- 0.00 29.675
09/04/2003 5:30 a 74.0 70.1 70.1 70.2 70.0 100 70.1 0.0 0.0 --- 0.00 29.675
09/04/2003 6:00 a 74.0 70.1 70.1 70.2 69.7 100 70.1 0.0 0.0 --- 0.00 29.673
09/04/2003 6:30 a 74.0 69.5 69.5 69.8 69.2 100 69.5 0.0 0.0 --- 0.00 29.680
09/04/2003 7:00 a 74.0 69.6 69.6 70.1 69.2 100 69.6 0.0 0.0 --- 0.00 29.682
09/04/2003 7:30 a 74.0 70.4 70.4 71.1 70.1 100 70.4 0.0 0.0 --- 0.00 29.686
09/04/2003 8:00 a 75.0 71.2 71.2 71.3 71.0 100 71.2 0.0 0.0 --- 0.00 29.685
09/04/2003 8:30 a 76.0 71.7 71.7 72.2 71.3 100 71.7 0.0 0.0 --- 0.00 29.683
09/04/2003 9:00 a 76.0 72.0 72.0 72.2 71.7 100 72.0 0.0 0.0 --- 0.00 29.676
09/04/2003 9:30 a 76.0 71.7 71.7 71.8 71.7 100 71.7 0.0 0.0 --- 0.00 29.677
09/04/2003 10:00 a 76.0 71.9 71.9 72.1 71.7 100 71.9 0.0 0.0 --- 0.03 29.676
09/04/2003 10:30 a 76.0 71.9 71.9 72.0 71.8 100 71.9 0.0 1.0 --- 0.02 29.678
09/04/2003 11:00 a 76.0 71.8 71.8 71.9 71.5 100 71.8 0.0 0.0 --- 0.00 29.686
09/04/2003 11:30 a 75.0 71.4 71.4 71.5 71.3 100 71.4 0.0 0.0 --- 0.03 29.692
09/04/2003 12:00 p 76.0 71.8 71.8 72.2 71.5 100 71.8 0.0 0.0 --- 0.02 29.679
09/04/2003 12:30 p 77.0 72.6 72.6 73.0 72.0 100 72.6 0.0 1.0 NNW 0.01 29.677
09/04/2003 1:00 p 76.0 72.1 72.1 72.9 71.9 100 72.1 0.0 0.0 --- 0.03 29.667
09/04/2003 1:30 p 77.0 72.8 72.8 73.0 72.5 100 72.8 0.0 1.0 W 0.00 29.668
09/04/2003 2:00 p 77.0 73.1 73.1 73.5 72.8 100 73.1 0.0 1.0 --- 0.00 29.653
09/04/2003 2:30 p 77.0 72.9 72.9 73.2 72.7 100 72.9 0.0 1.0 SW 0.00 29.644
09/04/2003 3:00 p 77.0 72.8 72.8 73.1 72.6 100 72.8 0.0 1.0 --- 0.00 29.648
09/04/2003 3:30 p 78.0 73.8 73.8 74.3 73.1 100 73.8 0.0 0.0 --- 0.00 29.640
09/04/2003 4:00 p 78.0 73.8 73.8 74.2 73.5 100 73.8 0.0 0.0 --- 0.00 29.636
09/04/2003 4:30 p 78.0 73.7 73.7 74.1 73.2 100 73.7 0.0 1.0 --- 0.00 29.626
09/04/2003 5:00 p 78.0 73.5 73.5 73.8 73.1 100 73.5 0.0 0.0 --- 0.00 29.639
09/04/2003 5:30 p 77.0 73.2 73.2 73.6 73.0 100 73.2 0.0 0.0 --- 0.00 29.639
09/04/2003 6:00 p 76.0 72.3 72.3 73.0 72.0 100 72.3 0.0 0.0 --- 0.00 29.633
09/04/2003 6:30 p 76.0 71.8 71.8 72.1 71.6 100 71.8 0.0 0.0 --- 0.00 29.629
09/04/2003 7:00 p 75.0 71.4 71.4 71.7 71.1 100 71.4 0.0 0.0 --- 0.00 29.626
09/04/2003 7:30 p 75.0 71.1 71.1 71.2 70.9 100 71.1 0.0 0.0 --- 0.00 29.632
09/04/2003 8:00 p 75.0 70.7 70.7 70.9 70.4 100 70.7 0.0 0.0 --- 0.00 29.635
09/04/2003 8:30 p 74.0 70.3 70.3 70.5 70.0 100 70.3 0.0 0.0 --- 0.00 29.644
09/04/2003 9:00 p 74.0 69.5 69.5 70.0 69.3 100 69.5 0.0 0.0 --- 0.00 29.644
09/04/2003 9:30 p 72.0 69.1 69.1 69.3 68.9 100 69.1 0.0 0.0 --- 0.00 29.649
09/04/2003 10:00 p 72.0 68.9 68.9 69.0 68.8 100 68.9 0.0 0.0 --- 0.00 29.657
09/04/2003 10:30 p 74.0 69.6 69.6 70.0 69.0 100 69.6 0.0 0.0 --- 0.00 29.670
09/04/2003 11:00 p 72.0 69.1 69.1 69.8 68.4 100 69.1 0.0 0.0 --- 0.00 29.674
09/04/2003 11:30 p 70.0 68.0 68.0 68.4 67.5 100 68.0 0.0 0.0 --- 0.00 29.668
09/05/2003 12:00 a 67.4 67.4 67.4 67.5 67.1 100 67.4 0.0 0.0 --- 0.00 29.664
09/05/2003 12:30 a 66.8 66.8 66.8 67.1 66.6 100 66.8 0.0 0.0 --- 0.00 29.658
09/05/2003 1:00 a 66.3 66.3 66.3 66.6 66.1 100 66.3 0.0 0.0 --- 0.00 29.654
09/05/2003 1:30 a 65.8 65.8 65.8 66.1 65.6 100 65.8 0.0 0.0 --- 0.00 29.656
09/05/2003 2:00 a 66.0 66.0 66.0 66.1 65.6 100 66.0 0.0 0.0 --- 0.00 29.655
09/05/2003 2:30 a 65.8 65.8 65.8 66.0 65.4 100 65.8 0.0 0.0 --- 0.00 29.657
09/05/2003 3:00 a 66.1 66.1 66.1 66.8 65.4 100 66.1 0.0 0.0 --- 0.00 29.666
09/05/2003 3:30 a 66.5 66.5 66.5 66.8 66.3 100 66.5 0.0 0.0 --- 0.00 29.672
09/05/2003 4:00 a 66.0 66.0 66.0 66.3 65.6 100 66.0 0.0 0.0 --- 0.00 29.679
09/05/2003 4:30 a 65.4 65.4 65.4 65.7 64.8 100 65.4 0.0 0.0 --- 0.00 29.687
09/05/2003 5:00 a 64.4 64.4 64.4 64.8 63.7 100 64.4 0.0 0.0 --- 0.00 29.695
09/05/2003 5:30 a 63.3 63.3 63.3 63.7 62.6 100 63.3 0.0 0.0 --- 0.00 29.708
09/05/2003 6:00 a 62.5 62.5 62.5 62.7 62.2 100 62.5 0.0 0.0 --- 0.00 29.716
09/05/2003 6:30 a 61.5 61.5 61.5 62.2 60.8 100 61.5 0.0 0.0 --- 0.00 29.729
09/05/2003 7:00 a 60.8 60.8 60.8 61.2 60.6 100 60.8 0.0 0.0 --- 0.00 29.750
09/05/2003 7:30 a 61.7 61.7 61.7 62.1 61.2 100 61.7 0.0 0.0 --- 0.00 29.765
09/05/2003 8:00 a 62.5 62.5 62.5 63.0 62.1 100 62.5 0.0 0.0 --- 0.00 29.780
09/05/2003 8:30 a 63.4 63.4 63.4 64.1 63.0 100 63.4 0.0 0.0 --- 0.00 29.785
09/05/2003 9:00 a 65.4 65.4 65.4 66.5 64.1 100 65.4 0.0 0.0 --- 0.00 29.796
09/05/2003 9:30 a 67.4 67.4 67.4 68.1 66.5 100 67.4 0.0 0.0 --- 0.00 29.798
09/05/2003 10:00 a 72.0 68.5 68.5 69.2 68.1 100 68.5 0.0 4.0 ESE 0.00 29.808
09/05/2003 10:30 a 71.0 69.4 69.4 69.7 68.8 82 63.7 0.0 2.0 SE 0.00 29.812
09/05/2003 11:00 a 71.4 69.9 69.9 70.2 69.7 77 62.4 0.0 3.0 SE 0.00 29.815
09/05/2003 11:30 a 71.0 70.7 70.7 71.4 69.9 69 60.0 0.0 2.0 ESE 0.00 29.810
09/05/2003 12:00 p 72.0 71.8 71.8 72.5 71.3 67 60.3 0.0 2.0 ESE 0.00 29.806
09/05/2003 12:30 p 73.3 73.2 73.2 75.7 72.4 63 59.9 0.0 3.0 SE 0.00 29.804
09/05/2003 1:00 p 84.8 85.0 85.0 88.2 75.8 39 57.3 0.0 3.0 ESE 0.00 29.796
09/05/2003 1:30 p 87.9 89.4 89.4 91.1 88.1 33 56.5 0.0 2.0 SE 0.00 29.798
09/05/2003 2:00 p 88.2 89.3 89.3 91.0 87.1 34 57.3 0.0 3.0 SE 0.00 29.800
09/05/2003 2:30 p 80.0 80.4 80.4 87.1 78.0 47 58.3 0.0 3.0 SE 0.00 29.794
09/05/2003 3:00 p 78.0 77.8 77.8 78.2 77.4 50 57.7 0.0 2.0 SE 0.00 29.788
09/05/2003 3:30 p 78.0 78.0 78.0 78.6 77.6 50 57.9 0.0 2.0 ESE 0.00 29.785
09/05/2003 4:00 p 76.6 77.2 77.2 77.8 76.7 48 56.0 0.0 2.0 ESE 0.00 29.780
09/05/2003 4:30 p 77.8 77.9 77.9 78.5 77.3 48 56.7 0.0 4.0 SE 0.00 29.785
09/05/2003 5:00 p 77.0 76.6 76.6 77.3 76.3 51 57.1 0.0 2.0 ESE 0.00 29.795
09/05/2003 5:30 p 76.0 75.8 75.8 76.5 74.9 54 58.0 0.0 2.0 ESE 0.00 29.797
09/05/2003 6:00 p 74.0 73.5 73.5 74.9 72.4 58 57.8 0.0 1.0 ESE 0.00 29.804
09/05/2003 6:30 p 71.9 72.1 72.1 72.4 71.8 59 57.0 0.0 2.0 ESE 0.00 29.807
09/05/2003 7:00 p 71.0 71.0 71.0 71.8 70.2 63 57.8 0.0 1.0 ESE 0.00 29.812
09/05/2003 7:30 p 69.2 69.0 69.0 70.2 67.4 71 59.2 0.0 0.0 --- 0.00 29.823
09/05/2003 8:00 p 66.2 66.2 66.2 67.3 65.8 78 59.1 0.0 0.0 --- 0.00 29.834
09/05/2003 8:30 p 64.5 64.5 64.5 65.8 63.4 82 58.9 0.0 0.0 --- 0.00 29.851
09/05/2003 9:00 p 62.7 62.7 62.7 63.4 62.2 87 58.8 0.0 0.0 --- 0.00 29.863
09/05/2003 9:30 p 61.6 61.6 61.6 62.2 61.1 87 57.7 0.0 0.0 --- 0.00 29.869
09/05/2003 10:00 p 60.8 60.8 60.8 61.1 60.4 89 57.5 0.0 0.0 --- 0.00 29.873
09/05/2003 10:30 p 60.2 60.2 60.2 60.4 60.0 92 57.9 0.0 0.0 --- 0.00 29.880
09/05/2003 11:00 p 60.5 60.5 60.5 61.1 60.2 89 57.2 0.0 0.0 --- 0.00 29.883
09/05/2003 11:30 p 62.3 62.3 62.3 62.7 61.1 81 56.4 0.0 1.0 --- 0.00 29.885
09/06/2003 12:00 a 62.9 62.9 62.9 63.1 62.7 79 56.3 0.0 1.0 --- 0.00 29.888
09/06/2003 12:30 a 62.8 62.8 62.8 63.1 62.5 79 56.2 0.0 1.0 --- 0.00 29.893
09/06/2003 1:00 a 62.5 62.5 62.5 62.6 62.3 77 55.2 0.0 1.0 --- 0.00 29.895
09/06/2003 1:30 a 62.1 62.1 62.1 62.5 61.6 79 55.5 0.0 1.0 --- 0.00 29.896
09/06/2003 2:00 a 61.0 61.0 61.0 61.7 60.3 81 55.1 0.0 0.0 --- 0.00 29.899
09/06/2003 2:30 a 59.6 59.6 59.6 60.3 58.7 87 55.7 0.0 0.0 --- 0.00 29.907
09/06/2003 3:00 a 57.7 57.7 57.7 58.7 57.0 90 54.8 0.0 0.0 --- 0.00 29.913
09/06/2003 3:30 a 56.5 56.5 56.5 57.0 56.3 93 54.5 0.0 0.0 --- 0.00 29.914
09/06/2003 4:00 a 55.9 55.9 55.9 56.3 55.4 93 53.9 0.0 0.0 --- 0.00 29.911
09/06/2003 4:30 a 55.4 55.4 55.4 56.1 55.0 92 53.1 0.0 0.0 --- 0.00 29.914
09/06/2003 5:00 a 55.2 55.2 55.2 55.8 54.8 94 53.5 0.0 0.0 --- 0.00 29.917
09/06/2003 5:30 a 54.4 54.4 54.4 54.9 54.0 94 52.7 0.0 0.0 --- 0.00 29.927
09/06/2003 6:00 a 53.7 53.7 53.7 54.1 53.5 95 52.3 0.0 0.0 --- 0.00 29.927
09/06/2003 6:30 a 54.0 54.0 54.0 54.4 53.6 95 52.6 0.0 0.0 --- 0.00 29.934
09/06/2003 7:00 a 53.5 53.5 53.5 53.6 53.5 95 52.1 0.0 0.0 --- 0.00 29.938
09/06/2003 7:30 a 54.4 54.4 54.4 55.5 53.6 94 52.7 0.0 1.0 --- 0.00 29.941
09/06/2003 8:00 a 56.8 56.8 56.8 57.8 55.5 87 53.0 0.0 1.0 --- 0.00 29.947
09/06/2003 8:30 a 58.9 58.9 58.9 60.3 57.8 80 52.8 0.0 0.0 --- 0.00 29.945
09/06/2003 9:00 a 64.1 64.1 64.1 70.3 60.3 65 52.1 0.0 1.0 ESE 0.00 29.949
09/06/2003 9:30 a 69.0 68.5 68.5 71.6 66.1 69 57.9 0.0 1.0 E 0.00 29.949
09/06/2003 10:00 a 66.4 66.4 66.4 67.2 65.7 69 55.9 0.0 1.0 --- 0.00 29.952
09/06/2003 10:30 a 67.2 67.2 67.2 67.5 67.0 69 56.7 0.0 0.0 --- 0.00 29.952
09/06/2003 11:00 a 67.9 67.9 67.9 68.2 67.5 65 55.7 0.0 2.0 ESE 0.00 29.952
09/06/2003 11:30 a 69.0 69.0 69.0 69.5 68.2 62 55.5 0.0 2.0 ESE 0.00 29.949
09/06/2003 12:00 p 69.4 69.7 69.7 70.0 69.5 57 53.8 0.0 1.0 NE 0.00 29.950
09/06/2003 12:30 p 69.0 71.0 71.0 75.1 70.0 49 50.9 0.0 1.0 ENE 0.00 29.948
09/06/2003 1:00 p 82.2 84.3 84.3 89.2 75.3 31 50.4 0.0 2.0 ENE 0.00 29.933
09/06/2003 1:30 p 88.4 90.4 90.4 92.4 88.4 28 52.9 0.0 2.0 ESE 0.00 29.924
09/06/2003 2:00 p 89.8 91.1 91.1 92.4 89.6 27 52.5 0.0 3.0 NE 0.00 29.918
09/06/2003 2:30 p 80.0 80.4 80.4 90.3 77.2 44 56.5 0.0 2.0 ENE 0.00 29.910
09/06/2003 3:00 p 75.8 76.6 76.6 77.2 76.1 44 53.1 0.0 2.0 NNE 0.00 29.898
09/06/2003 3:30 p 75.4 76.0 76.0 76.5 75.4 47 54.3 0.0 1.0 E 0.00 29.888
09/06/2003 4:00 p 75.6 75.9 75.9 76.1 75.4 48 54.8 0.0 1.0 E 0.00 29.886
09/06/2003 4:30 p 75.2 75.6 75.6 75.9 75.5 46 53.4 0.0 2.0 ENE 0.00 29.882
09/06/2003 5:00 p 74.8 74.5 74.5 75.5 73.4 49 54.1 0.0 1.0 SE 0.00 29.880
09/06/2003 5:30 p 73.0 72.8 72.8 73.4 72.2 52 54.2 0.0 0.0 --- 0.00 29.888
09/06/2003 6:00 p 71.9 71.5 71.5 72.2 71.0 59 56.4 0.0 0.0 --- 0.00 29.889
09/06/2003 6:30 p 70.4 70.6 70.6 71.0 69.9 57 54.6 0.0 0.0 --- 0.00 29.888
09/06/2003 7:00 p 69.0 69.1 69.1 69.9 67.9 66 57.3 0.0 0.0 --- 0.00 29.889
09/06/2003 7:30 p 65.7 65.7 65.7 67.9 63.9 72 56.4 0.0 0.0 --- 0.00 29.895
09/06/2003 8:00 p 62.6 62.6 62.6 63.8 61.4 78 55.7 0.0 0.0 --- 0.00 29.899
09/06/2003 8:30 p 60.7 60.7 60.7 61.4 60.0 84 55.8 0.0 0.0 --- 0.00 29.908
09/06/2003 9:00 p 59.6 59.6 59.6 60.0 59.1 87 55.7 0.0 0.0 --- 0.00 29.910
09/06/2003 9:30 p 58.9 58.9 58.9 59.2 58.5 90 56.0 0.0 0.0 --- 0.00 29.914
09/06/2003 10:00 p 58.1 58.1 58.1 58.5 57.8 92 55.8 0.0 0.0 --- 0.00 29.906
09/06/2003 10:30 p 57.6 57.6 57.6 57.8 57.4 93 55.6 0.0 0.0 --- 0.00 29.910
09/06/2003 11:00 p 57.1 57.1 57.1 57.4 57.0 94 55.4 0.0 0.0 --- 0.00 29.906
09/06/2003 11:30 p 56.7 56.7 56.7 57.1 56.4 94 55.0 0.0 0.0 --- 0.00 29.901
09/07/2003 12:00 a 56.3 56.3 56.3 56.5 56.0 95 54.9 0.0 0.0 --- 0.00 29.903
09/07/2003 12:30 a 55.9 55.9 55.9 56.0 55.6 95 54.5 0.0 0.0 --- 0.00 29.901
09/07/2003 1:00 a 55.4 55.4 55.4 55.6 55.3 95 54.0 0.0 0.0 --- 0.00 29.900
09/07/2003 1:30 a 55.1 55.1 55.1 55.4 54.8 95 53.7 0.0 0.0 --- 0.00 29.894
09/07/2003 2:00 a 54.7 54.7 54.7 54.8 54.5 95 53.3 0.0 0.0 --- 0.00 29.889
09/07/2003 2:30 a 54.3 54.3 54.3 54.5 54.3 95 52.9 0.0 0.0 --- 0.00 29.884
09/07/2003 3:00 a 54.1 54.1 54.1 54.3 53.9 95 52.7 0.0 0.0 --- 0.00 29.884
09/07/2003 3:30 a 53.6 53.6 53.6 54.0 53.4 96 52.5 0.0 0.0 --- 0.00 29.883
09/07/2003 4:00 a 53.4 53.4 53.4 53.5 53.3 96 52.3 0.0 0.0 --- 0.00 29.881
09/07/2003 4:30 a 53.0 53.0 53.0 53.3 52.8 96 51.9 0.0 0.0 --- 0.00 29.884
09/07/2003 5:00 a 52.8 52.8 52.8 53.0 52.6 96 51.7 0.0 0.0 --- 0.00 29.887
09/07/2003 5:30 a 52.6 52.6 52.6 52.7 52.5 96 51.5 0.0 0.0 --- 0.00 29.882
09/07/2003 6:00 a 52.3 52.3 52.3 52.6 52.0 96 51.2 0.0 0.0 --- 0.00 29.893
09/07/2003 6:30 a 51.9 51.9 51.9 52.1 51.9 96 50.8 0.0 0.0 --- 0.00 29.896
09/07/2003 7:00 a 52.0 52.0 52.0 52.2 51.9 96 50.9 0.0 0.0 --- 0.00 29.908
09/07/2003 7:30 a 52.8 52.8 52.8 53.9 52.1 97 52.0 0.0 0.0 --- 0.00 29.901
09/07/2003 8:00 a 54.7 54.7 54.7 55.5 53.9 97 53.9 0.0 0.0 --- 0.00 29.900
09/07/2003 8:30 a 56.5 56.5 56.5 57.8 55.5 96 55.4 0.0 0.0 --- 0.00 29.894
09/07/2003 9:00 a 61.2 61.2 61.2 65.7 57.8 88 57.6 0.0 0.0 --- 0.00 29.893
09/07/2003 9:30 a 66.6 66.6 66.6 68.3 64.7 81 60.6 0.0 0.0 --- 0.00 29.896
09/07/2003 10:00 a 67.3 67.3 67.3 68.5 66.2 75 59.1 0.0 0.0 --- 0.00 29.894
09/07/2003 10:30 a 70.0 69.5 69.5 70.5 68.6 68 58.5 0.0 0.0 --- 0.00 29.892
09/07/2003 11:00 a 71.0 71.2 71.2 71.7 70.5 66 59.3 0.0 1.0 --- 0.00 29.884
09/07/2003 11:30 a 73.0 72.7 72.7 73.2 71.7 58 57.1 0.0 1.0 SE 0.00 29.874
09/07/2003 12:00 p 73.0 73.4 73.4 74.0 73.1 59 58.2 0.0 1.0 --- 0.00 29.872
09/07/2003 12:30 p 74.2 74.8 74.8 80.3 74.0 46 52.7 0.0 1.0 SE 0.00 29.867
09/07/2003 1:00 p 87.6 89.4 89.4 92.3 80.5 32 55.7 0.0 3.0 SE 0.00 29.865
09/07/2003 1:30 p 93.6 93.8 93.8 94.8 92.0 29 56.8 0.0 1.0 --- 0.00 29.855
09/07/2003 2:00 p 89.9 90.1 90.1 92.9 87.5 33 57.1 0.0 2.0 ESE 0.00 29.854
09/07/2003 2:30 p 83.0 82.7 82.7 87.5 80.6 40 55.9 0.0 1.0 E 0.00 29.840
09/07/2003 3:00 p 80.0 80.4 80.4 80.6 80.1 41 54.6 0.0 2.0 SE 0.00 29.834
09/07/2003 3:30 p 80.0 80.2 80.2 80.3 80.1 41 54.4 0.0 1.0 ESE 0.00 29.829
09/07/2003 4:00 p 80.0 79.7 79.7 80.3 78.5 44 55.9 0.0 1.0 --- 0.00 29.828
09/07/2003 4:30 p 79.0 78.5 78.5 78.8 78.2 46 56.0 0.0 1.0 --- 0.00 29.826
09/07/2003 5:00 p 78.3 77.9 77.9 78.3 77.5 53 59.4 0.0 1.0 E 0.00 29.825
09/07/2003 5:30 p 77.0 76.7 76.7 77.6 75.9 54 58.8 0.0 0.0 --- 0.00 29.828
09/07/2003 6:00 p 75.0 75.2 75.2 75.9 74.6 59 59.9 0.0 0.0 --- 0.00 29.831
09/07/2003 6:30 p 74.6 73.7 73.7 74.6 72.6 63 60.3 0.0 0.0 --- 0.00 29.834
09/07/2003 7:00 p 72.0 71.7 71.7 72.6 70.8 66 59.7 0.0 0.0 --- 0.00 29.830
09/07/2003 7:30 p 70.6 69.4 69.4 70.8 68.2 78 62.3 0.0 0.0 --- 0.00 29.831
09/07/2003 8:00 p 66.7 66.7 66.7 68.2 65.3 81 60.7 0.0 0.0 --- 0.00 29.837
09/07/2003 8:30 p 64.4 64.4 64.4 65.3 63.7 84 59.5 0.0 0.0 --- 0.00 29.849
09/07/2003 9:00 p 63.3 63.3 63.3 63.7 62.9 86 59.0 0.0 0.0 --- 0.00 29.852
09/07/2003 9:30 p 62.4 62.4 62.4 62.9 61.9 89 59.1 0.0 0.0 --- 0.00 29.853
09/07/2003 10:00 p 61.4 61.4 61.4 61.9 60.9 92 59.1 0.0 0.0 --- 0.00 29.855
09/07/2003 10:30 p 60.6 60.6 60.6 61.0 60.3 93 58.6 0.0 0.0 --- 0.00 29.854
09/07/2003 11:00 p 60.0 60.0 60.0 60.3 59.9 94 58.3 0.0 0.0 --- 0.00 29.856
09/07/2003 11:30 p 59.6 59.6 59.6 59.9 59.3 94 57.9 0.0 0.0 --- 0.00 29.857
09/08/2003 12:00 a 59.4 59.4 59.4 59.4 59.3 94 57.7 0.0 0.0 --- 0.00 29.850
09/08/2003 12:30 a 58.9 58.9 58.9 59.3 58.5 94 57.2 0.0 0.0 --- 0.00 29.848
09/08/2003 1:00 a 58.4 58.4 58.4 58.5 58.2 95 57.0 0.0 0.0 --- 0.00 29.853
09/08/2003 1:30 a 58.1 58.1 58.1 58.2 57.9 95 56.7 0.0 0.0 --- 0.00 29.849
09/08/2003 2:00 a 57.9 57.9 57.9 58.0 57.8 95 56.5 0.0 0.0 --- 0.00 29.849
09/08/2003 2:30 a 57.6 57.6 57.6 57.8 57.5 96 56.5 0.0 0.0 --- 0.00 29.847
09/08/2003 3:00 a 57.4 57.4 57.4 57.5 57.3 96 56.3 0.0 0.0 --- 0.00 29.851
09/08/2003 3:30 a 57.1 57.1 57.1 57.3 56.9 96 56.0 0.0 0.0 --- 0.00 29.856
09/08/2003 4:00 a 56.9 56.9 56.9 57.1 56.8 96 55.8 0.0 0.0 --- 0.00 29.862
09/08/2003 4:30 a 57.0 57.0 57.0 57.1 56.8 96 55.9 0.0 0.0 --- 0.00 29.863
09/08/2003 5:00 a 56.7 56.7 56.7 56.8 56.5 96 55.6 0.0 0.0 --- 0.00 29.871
09/08/2003 5:30 a 56.2 56.2 56.2 56.5 56.1 96 55.1 0.0 0.0 --- 0.00 29.878
09/08/2003 6:00 a 56.1 56.1 56.1 56.2 56.1 96 55.0 0.0 0.0 --- 0.00 29.876
09/08/2003 6:30 a 56.2 56.2 56.2 56.3 56.1 96 55.1 0.0 0.0 --- 0.00 29.884
09/08/2003 7:00 a 56.5 56.5 56.5 56.9 56.3 97 55.7 0.0 0.0 --- 0.00 29.888
09/08/2003 7:30 a 57.6 57.6 57.6 58.4 56.9 97 56.8 0.0 0.0 --- 0.00 29.900
09/08/2003 8:00 a 59.3 59.3 59.3 60.7 58.4 96 58.2 0.0 0.0 --- 0.00 29.908
09/08/2003 8:30 a 62.5 62.5 62.5 63.9 60.7 93 60.5 0.0 0.0 --- 0.00 29.916
09/08/2003 9:00 a 67.0 67.0 67.0 70.4 63.9 79 60.3 0.0 0.0 --- 0.00 29.921
09/08/2003 9:30 a 71.6 70.4 70.4 71.0 70.1 78 63.2 0.0 1.0 --- 0.00 29.922
09/08/2003 10:00 a 72.0 71.0 71.0 71.7 70.3 75 62.7 0.0 1.0 --- 0.00 29.924
09/08/2003 10:30 a 72.2 72.0 72.0 72.4 71.7 71 62.1 0.0 2.0 E 0.00 29.924
09/08/2003 11:00 a 74.0 73.0 73.0 73.4 72.4 70 62.6 0.0 1.0 --- 0.00 29.926
09/08/2003 11:30 a 76.0 74.5 74.5 75.4 73.4 65 62.0 0.0 2.0 NNW 0.00 29.927
09/08/2003 12:00 p 75.2 75.3 75.3 76.6 74.8 61 60.9 0.0 2.0 NNW 0.00 29.930
09/08/2003 12:30 p 77.0 77.1 77.1 78.7 76.6 58 61.2 0.0 1.0 N 0.00 29.931
09/08/2003 1:00 p 85.8 85.2 85.2 87.6 78.8 44 60.8 0.0 2.0 N 0.00 29.936
09/08/2003 1:30 p 85.0 82.5 82.5 87.5 78.1 55 64.7 0.0 1.0 N 0.00 29.939
09/08/2003 2:00 p 85.0 83.1 83.1 86.5 79.4 54 64.7 0.0 2.0 NE 0.00 29.927
09/08/2003 2:30 p 80.4 78.5 78.5 79.9 77.7 57 62.0 0.0 2.0 N 0.00 29.921
09/08/2003 3:00 p 77.0 77.2 77.2 78.8 76.4 56 60.3 0.0 0.0 --- 0.00 29.916
09/08/2003 3:30 p 78.9 77.8 77.8 78.8 76.7 59 62.3 0.0 1.0 --- 0.00 29.911
09/08/2003 4:00 p 77.4 77.0 77.0 78.6 76.0 62 63.0 0.0 1.0 --- 0.00 29.908
09/08/2003 4:30 p 78.0 75.5 75.5 76.4 73.9 70 65.0 0.0 2.0 N 0.00 29.911
09/08/2003 5:00 p 75.8 73.6 73.6 74.0 73.3 69 62.8 0.0 2.0 N 0.00 29.919
09/08/2003 5:30 p 74.0 72.9 72.9 73.4 72.5 70 62.6 0.0 1.0 N 0.00 29.921
09/08/2003 6:00 p 72.4 71.5 71.5 72.5 70.6 72 62.0 0.0 1.0 N 0.00 29.928
09/08/2003 6:30 p 70.6 70.1 70.1 70.6 69.4 73 61.1 0.0 0.0 --- 0.00 29.930
09/08/2003 7:00 p 70.6 68.7 68.7 69.4 67.4 78 61.6 0.0 1.0 --- 0.00 29.936
09/08/2003 7:30 p 66.3 66.3 66.3 67.4 65.3 85 61.7 0.0 0.0 --- 0.00 29.944
09/08/2003 8:00 p 64.6 64.6 64.6 65.3 64.1 86 60.3 0.0 0.0 --- 0.00 29.948
09/08/2003 8:30 p 63.8 63.8 63.8 64.2 63.4 89 60.5 0.0 0.0 --- 0.00 29.958
09/08/2003 9:00 p 63.0 63.0 63.0 63.4 62.7 91 60.3 0.0 0.0 --- 0.00 29.969
09/08/2003 9:30 p 62.4 62.4 62.4 62.7 62.2 92 60.0 0.0 0.0 --- 0.00 29.973
09/08/2003 10:00 p 61.9 61.9 61.9 62.2 61.5 93 59.9 0.0 0.0 --- 0.00 29.979
09/08/2003 10:30 p 61.5 61.5 61.5 61.6 61.4 93 59.5 0.0 0.0 --- 0.00 29.988
09/08/2003 11:00 p 61.0 61.0 61.0 61.4 60.8 94 59.3 0.0 0.0 --- 0.00 29.988
09/08/2003 11:30 p 60.9 60.9 60.9 61.2 60.7 95 59.5 0.0 0.0 --- 0.00 29.999
09/09/2003 12:00 a 61.4 61.4 61.4 61.7 61.2 94 59.7 0.0 0.0 --- 0.00 30.009
09/09/2003 12:30 a 61.7 61.7 61.7 61.8 61.6 94 60.0 0.0 0.0 --- 0.00 30.014
09/09/2003 1:00 a 61.8 61.8 61.8 62.2 61.6 95 60.4 0.0 0.0 --- 0.00 30.017
09/09/2003 1:30 a 62.7 62.7 62.7 63.1 62.2 94 61.0 0.0 0.0 --- 0.00 30.023
09/09/2003 2:00 a 63.3 63.3 63.3 63.3 63.1 94 61.5 0.0 0.0 --- 0.00 30.024
09/09/2003 2:30 a 63.2 63.2 63.2 63.3 63.1 94 61.4 0.0 0.0 --- 0.00 30.026
09/09/2003 3:00 a 63.3 63.3 63.3 63.4 63.2 92 60.9 0.0 0.0 --- 0.00 30.032
09/09/2003 3:30 a 63.4 63.4 63.4 63.6 63.3 91 60.7 0.0 0.0 --- 0.00 30.045
09/09/2003 4:00 a 63.7 63.7 63.7 63.8 63.5 90 60.7 0.0 0.0 --- 0.00 30.043
09/09/2003 4:30 a 63.5 63.5 63.5 63.6 63.4 88 59.9 0.0 0.0 --- 0.00 30.040
09/09/2003 5:00 a 63.2 63.2 63.2 63.5 62.9 87 59.3 0.0 0.0 --- 0.00 30.040
09/09/2003 5:30 a 62.5 62.5 62.5 62.9 62.0 92 60.1 0.0 0.0 --- 0.00 30.048
09/09/2003 6:00 a 61.4 61.4 61.4 62.0 60.9 94 59.7 0.0 0.0 --- 0.00 30.054
09/09/2003 6:30 a 60.8 60.8 60.8 60.9 60.4 93 58.8 0.0 0.0 --- 0.00 30.065
09/09/2003 7:00 a 59.9 59.9 59.9 60.4 59.7 93 57.9 0.0 0.0 --- 0.00 30.076
09/09/2003 7:30 a 59.9 59.9 59.9 60.3 59.7 92 57.6 0.0 0.0 --- 0.00 30.080
09/09/2003 8:00 a 61.2 61.2 61.2 62.0 60.3 91 58.6 0.0 0.0 --- 0.00 30.085
09/09/2003 8:30 a 63.0 63.0 63.0 63.7 62.0 86 58.8 0.0 0.0 --- 0.00 30.090
09/09/2003 9:00 a 67.5 67.5 67.5 71.8 63.7 65 55.3 0.0 0.0 --- 0.00 30.094
09/09/2003 9:30 a 69.0 68.5 68.5 70.9 67.8 67 57.1 0.0 0.0 --- 0.00 30.108
09/09/2003 10:00 a 68.0 68.1 68.1 68.3 67.9 60 53.7 0.0 1.0 NNE 0.00 30.117
09/09/2003 10:30 a 68.0 69.0 69.0 69.4 68.3 55 52.2 0.0 3.0 N 0.00 30.125
09/09/2003 11:00 a 68.4 69.1 69.1 69.3 68.9 57 53.2 0.0 4.0 NNW 0.00 30.129
09/09/2003 11:30 a 69.4 69.6 69.6 70.0 69.3 57 53.7 0.0 3.0 N 0.00 30.134
09/09/2003 12:00 p 68.8 70.2 70.2 70.7 69.9 54 52.8 0.0 3.0 N 0.00 30.133
09/09/2003 12:30 p 69.0 71.3 71.3 74.2 70.7 50 51.7 0.0 3.0 N 0.00 30.129
09/09/2003 1:00 p 77.2 77.9 77.9 80.9 74.3 42 53.0 1.0 3.0 NNW 0.00 30.130
09/09/2003 1:30 p 81.0 80.7 80.7 82.2 78.0 40 54.2 1.0 4.0 NNW 0.00 30.131
09/09/2003 2:00 p 80.0 80.2 80.2 81.8 76.6 45 57.0 1.0 4.0 N 0.00 30.131
09/09/2003 2:30 p 74.0 73.6 73.6 76.5 72.4 52 54.9 1.0 4.0 NNW 0.00 30.120
09/09/2003 3:00 p 71.4 72.2 72.2 72.5 71.7 54 54.6 1.0 5.0 N 0.00 30.120
09/09/2003 3:30 p 71.4 72.0 72.0 72.6 71.6 54 54.5 1.0 4.0 NNW 0.00 30.118
09/09/2003 4:00 p 70.4 71.1 71.1 71.7 70.5 57 55.1 1.0 4.0 N 0.00 30.115
09/09/2003 4:30 p 69.6 70.3 70.3 70.8 69.8 58 54.8 1.0 4.0 NNW 0.00 30.110
09/09/2003 5:00 p 69.0 69.2 69.2 69.8 68.8 61 55.2 1.0 4.0 N 0.00 30.109
09/09/2003 5:30 p 68.0 68.2 68.2 68.8 67.7 62 54.7 1.0 3.0 N 0.00 30.110
09/09/2003 6:00 p 67.3 67.3 67.3 67.7 66.8 66 55.6 0.0 2.0 N 0.00 30.111
09/09/2003 6:30 p 66.5 66.5 66.5 66.8 66.0 68 55.6 0.0 3.0 N 0.00 30.113
09/09/2003 7:00 p 65.3 65.3 65.3 66.0 64.1 73 56.4 0.0 2.0 NNW 0.00 30.110
09/09/2003 7:30 p 63.8 63.8 63.8 64.2 62.9 76 56.1 0.0 0.0 --- 0.00 30.115
09/09/2003 8:00 p 62.3 62.3 62.3 62.9 61.7 80 56.1 0.0 0.0 --- 0.00 30.122
09/09/2003 8:30 p 61.0 61.0 61.0 61.7 60.4 84 56.1 0.0 0.0 --- 0.00 30.127
09/09/2003 9:00 p 60.1 60.1 60.1 60.4 59.9 86 55.9 0.0 0.0 --- 0.00 30.131
09/09/2003 9:30 p 59.5 59.5 59.5 59.9 58.9 88 55.9 0.0 0.0 --- 0.00 30.128
09/09/2003 10:00 p 58.5 58.5 58.5 58.9 58.1 91 55.9 0.0 0.0 --- 0.00 30.132
09/09/2003 10:30 p 57.9 57.9 57.9 58.1 57.7 91 55.3 0.0 0.0 --- 0.00 30.136
09/09/2003 11:00 p 57.8 57.8 57.8 58.0 57.5 93 55.8 0.0 0.0 --- 0.00 30.140
09/09/2003 11:30 p 57.5 57.5 57.5 57.7 57.2 93 55.5 0.0 0.0 --- 0.00 30.147
09/10/2003 12:00 a 57.1 57.1 57.1 57.2 56.9 94 55.4 0.0 0.0 --- 0.00 30.144
09/10/2003 12:30 a 56.8 56.8 56.8 57.1 56.7 94 55.1 0.0 0.0 --- 0.00 30.145
09/10/2003 1:00 a 56.8 56.8 56.8 56.9 56.7 94 55.1 0.0 0.0 --- 0.00 30.139
09/10/2003 1:30 a 56.9 56.9 56.9 57.0 56.8 93 54.9 0.0 0.0 --- 0.00 30.137
09/10/2003 2:00 a 56.5 56.5 56.5 56.8 56.2 93 54.5 0.0 0.0 --- 0.00 30.128
09/10/2003 2:30 a 55.9 55.9 55.9 56.3 55.6 94 54.2 0.0 0.0 --- 0.00 30.126
09/10/2003 3:00 a 55.4 55.4 55.4 55.6 55.3 95 54.0 0.0 0.0 --- 0.00 30.123
09/10/2003 3:30 a 55.1 55.1 55.1 55.5 54.7 95 53.7 0.0 0.0 --- 0.00 30.120
09/10/2003 4:00 a 54.6 54.6 54.6 54.8 54.4 95 53.2 0.0 0.0 --- 0.00 30.110
09/10/2003 4:30 a 54.2 54.2 54.2 54.4 53.9 95 52.8 0.0 0.0 --- 0.00 30.109
09/10/2003 5:00 a 53.9 53.9 53.9 54.0 53.8 95 52.5 0.0 0.0 --- 0.00 30.111
09/10/2003 5:30 a 53.6 53.6 53.6 53.8 53.4 96 52.5 0.0 0.0 --- 0.00 30.103
09/10/2003 6:00 a 53.1 53.1 53.1 53.4 52.8 95 51.7 0.0 0.0 --- 0.00 30.111
09/10/2003 6:30 a 52.5 52.5 52.5 52.8 52.3 96 51.4 0.0 0.0 --- 0.00 30.108
09/10/2003 7:00 a 52.4 52.4 52.4 52.5 52.3 95 51.0 0.0 0.0 --- 0.00 30.117
09/10/2003 7:30 a 52.6 52.6 52.6 53.2 52.3 96 51.5 0.0 0.0 --- 0.00 30.121
09/10/2003 8:00 a 54.3 54.3 54.3 55.6 53.2 96 53.2 0.0 0.0 --- 0.00 30.122
09/10/2003 8:30 a 56.7 56.7 56.7 57.9 55.6 93 54.7 0.0 0.0 --- 0.00 30.113
09/10/2003 9:00 a 62.6 62.6 62.6 68.4 57.9 76 54.9 0.0 0.0 --- 0.00 30.120
09/10/2003 9:30 a 63.8 63.8 63.8 66.5 63.0 79 57.2 0.0 0.0 --- 0.00 30.118
09/10/2003 10:00 a 64.0 64.0 64.0 64.7 63.0 76 56.3 0.0 0.0 --- 0.00 30.123
09/10/2003 10:30 a 65.3 65.3 65.3 65.7 64.7 73 56.4 0.0 1.0 --- 0.00 30.124
09/10/2003 11:00 a 66.3 66.3 66.3 67.0 65.6 71 56.6 0.0 2.0 NNE 0.00 30.123
09/10/2003 11:30 a 67.5 67.5 67.5 67.9 67.0 67 56.2 0.0 1.0 NE 0.00 30.119
09/10/2003 12:00 p 68.0 68.4 68.4 69.1 67.9 64 55.8 0.0 2.0 ENE 0.00 30.103
09/10/2003 12:30 p 69.8 70.1 70.1 72.3 69.0 59 55.1 0.0 2.0 SE 0.00 30.096
09/10/2003 1:00 p 82.0 83.2 83.2 87.6 72.3 35 52.7 0.0 3.0 N 0.00 30.084
09/10/2003 1:30 p 86.6 88.2 88.2 90.1 86.3 33 55.5 0.0 2.0 N 0.00 30.073
09/10/2003 2:00 p 88.8 89.1 89.1 90.4 82.6 36 58.7 0.0 2.0 SSE 0.00 30.058
09/10/2003 2:30 p 76.0 77.4 77.4 82.5 75.7 45 54.4 0.0 2.0 NE 0.00 30.048
09/10/2003 3:00 p 74.8 76.2 76.2 76.6 75.7 44 52.7 0.0 2.0 ENE 0.00 30.035
09/10/2003 3:30 p 75.8 76.6 76.6 76.7 76.4 44 53.1 0.0 3.0 ESE 0.00 30.027
09/10/2003 4:00 p 75.0 76.4 76.4 76.6 75.4 45 53.5 0.0 2.0 ESE 0.00 30.019
09/10/2003 4:30 p 73.8 75.4 75.4 75.6 75.0 44 52.0 0.0 2.0 ESE 0.00 30.012
09/10/2003 5:00 p 75.0 74.9 74.9 75.6 74.0 50 55.0 0.0 1.0 ESE 0.00 30.011
09/10/2003 5:30 p 73.8 73.8 73.8 74.0 73.3 49 53.5 0.0 1.0 ESE 0.00 30.011
09/10/2003 6:00 p 70.9 72.3 72.3 73.3 71.3 49 52.1 0.0 1.0 --- 0.00 30.006
09/10/2003 6:30 p 70.6 70.6 70.6 71.3 69.4 58 55.1 0.0 1.0 --- 0.00 29.999
09/10/2003 7:00 p 67.5 67.5 67.5 69.4 65.9 67 56.2 0.0 0.0 --- 0.00 30.000
09/10/2003 7:30 p 64.4 64.4 64.4 65.9 63.0 73 55.6 0.0 0.0 --- 0.00 30.003
09/10/2003 8:00 p 62.0 62.0 62.0 63.0 61.2 78 55.1 0.0 0.0 --- 0.00 30.008
09/10/2003 8:30 p 60.6 60.6 60.6 61.2 60.0 82 55.1 0.0 0.0 --- 0.00 30.020
09/10/2003 9:00 p 59.6 59.6 59.6 60.0 59.4 85 55.1 0.0 0.0 --- 0.00 30.029
09/10/2003 9:30 p 59.1 59.1 59.1 59.4 58.9 88 55.6 0.0 0.0 --- 0.00 30.030
09/10/2003 10:00 p 58.6 58.6 58.6 58.9 58.3 89 55.4 0.0 0.0 --- 0.00 30.035
09/10/2003 10:30 p 57.9 57.9 57.9 58.3 57.5 91 55.3 0.0 0.0 --- 0.00 30.036
09/10/2003 11:00 p 57.3 57.3 57.3 57.5 57.3 93 55.3 0.0 0.0 --- 0.00 30.041
09/10/2003 11:30 p 57.0 57.0 57.0 57.3 56.8 93 55.0 0.0 0.0 --- 0.00 30.038
09/11/2003 12:00 a 56.5 56.5 56.5 56.9 56.2 94 54.8 0.0 0.0 --- 0.00 30.030
09/11/2003 12:30 a 56.0 56.0 56.0 56.2 55.9 94 54.3 0.0 0.0 --- 0.00 30.038
09/11/2003 1:00 a 55.7 55.7 55.7 55.9 55.6 94 54.0 0.0 0.0 --- 0.00 30.040
09/11/2003 1:30 a 55.5 55.5 55.5 55.7 55.3 94 53.8 0.0 0.0 --- 0.00 30.040
09/11/2003 2:00 a 55.1 55.1 55.1 55.3 55.0 95 53.7 0.0 0.0 --- 0.00 30.035
09/11/2003 2:30 a 55.0 55.0 55.0 55.1 54.8 95 53.6 0.0 0.0 --- 0.00 30.030
09/11/2003 3:00 a 54.4 54.4 54.4 54.8 54.2 95 53.0 0.0 0.0 --- 0.00 30.022
09/11/2003 3:30 a 54.1 54.1 54.1 54.2 54.1 95 52.7 0.0 0.0 --- 0.00 30.026
09/11/2003 4:00 a 53.9 53.9 53.9 54.1 53.7 95 52.5 0.0 0.0 --- 0.00 30.025
09/11/2003 4:30 a 53.8 53.8 53.8 53.9 53.6 96 52.7 0.0 0.0 --- 0.00 30.027
09/11/2003 5:00 a 53.7 53.7 53.7 53.9 53.5 95 52.3 0.0 0.0 --- 0.00 30.033
09/11/2003 5:30 a 53.3 53.3 53.3 53.5 53.2 96 52.2 0.0 0.0 --- 0.00 30.036
09/11/2003 6:00 a 53.5 53.5 53.5 53.8 53.3 96 52.4 0.0 0.0 --- 0.00 30.035
09/11/2003 6:30 a 53.9 53.9 53.9 53.9 53.8 96 52.8 0.0 0.0 --- 0.00 30.046
09/11/2003 7:00 a 54.1 54.1 54.1 54.2 53.9 96 53.0 0.0 0.0 --- 0.00 30.050
09/11/2003 7:30 a 54.6 54.6 54.6 55.3 54.2 96 53.5 0.0 0.0 --- 0.00 30.053
09/11/2003 8:00 a 56.2 56.2 56.2 57.3 55.3 96 55.1 0.0 0.0 --- 0.00 30.056
09/11/2003 8:30 a 59.4 59.4 59.4 61.5 57.3 88 55.9 0.0 0.0 --- 0.00 30.055
09/11/2003 9:00 a 67.4 67.4 67.4 74.1 61.5 64 54.8 0.0 2.0 --- 0.00 30.055
09/11/2003 9:30 a 69.0 69.4 69.4 72.1 68.8 66 57.6 0.0 0.0 --- 0.00 30.067
09/11/2003 10:00 a 70.0 69.9 69.9 70.6 69.3 64 57.2 0.0 0.0 --- 0.00 30.074
09/11/2003 10:30 a 71.0 71.1 71.1 71.8 70.6 61 57.0 0.0 0.0 --- 0.00 30.091
09/11/2003 11:00 a 72.0 72.1 72.1 72.8 71.7 60 57.5 0.0 0.0 --- 0.00 30.096
09/11/2003 11:30 a 74.0 73.6 73.6 74.0 72.8 58 57.9 0.0 3.0 N 0.00 30.103
09/11/2003 12:00 p 75.0 75.1 75.1 75.7 74.0 53 56.8 0.0 2.0 N 0.00 30.103
09/11/2003 12:30 p 76.0 76.1 76.1 77.4 75.5 51 56.7 0.0 3.0 N 0.00 30.101
09/11/2003 1:00 p 84.6 86.1 86.1 90.7 77.2 33 53.7 0.0 2.0 NNW 0.00 30.104
09/11/2003 1:30 p 91.6 91.1 91.1 91.8 90.5 33 58.0 0.0 2.0 N 0.00 30.095
09/11/2003 2:00 p 92.6 89.8 89.8 91.6 84.3 42 63.7 0.0 2.0 ENE 0.00 30.092
09/11/2003 2:30 p 81.0 80.7 80.7 84.2 79.3 49 59.8 0.0 2.0 N 0.00 30.082
09/11/2003 3:00 p 79.2 78.5 78.5 79.3 77.9 51 58.9 1.0 3.0 NNW 0.00 30.084
09/11/2003 3:30 p 77.8 78.0 78.0 78.3 77.7 48 56.7 0.0 5.0 N 0.00 30.083
09/11/2003 4:00 p 76.8 76.9 76.9 77.7 76.3 49 56.3 1.0 3.0 N 0.00 30.084
09/11/2003 4:30 p 76.0 75.8 75.8 76.3 75.2 54 58.0 1.0 3.0 NNW 0.00 30.086
09/11/2003 5:00 p 74.8 74.7 74.7 75.2 74.1 49 54.3 1.0 3.0 N 0.00 30.088
09/11/2003 5:30 p 73.8 73.5 73.5 74.1 72.7 49 53.2 0.0 3.0 N 0.00 30.086
09/11/2003 6:00 p 71.1 72.0 72.0 72.7 70.8 51 52.9 0.0 2.0 N 0.00 30.091
09/11/2003 6:30 p 69.6 70.2 70.2 70.9 69.3 58 54.7 0.0 1.0 N 0.00 30.087
09/11/2003 7:00 p 68.0 68.4 68.4 69.4 67.2 69 57.8 0.0 0.0 --- 0.00 30.091
09/11/2003 7:30 p 66.2 66.2 66.2 67.1 65.4 72 56.9 0.0 0.0 --- 0.00 30.086
09/11/2003 8:00 p 64.7 64.7 64.7 65.4 64.3 75 56.6 0.0 0.0 --- 0.00 30.088
09/11/2003 8:30 p 64.1 64.1 64.1 64.4 63.9 78 57.1 0.0 0.0 --- 0.00 30.090
09/11/2003 9:00 p 63.7 63.7 63.7 64.0 63.4 83 58.4 0.0 0.0 --- 0.00 30.097
09/11/2003 9:30 p 63.1 63.1 63.1 63.4 62.8 86 58.9 0.0 0.0 --- 0.00 30.099
09/11/2003 10:00 p 62.6 62.6 62.6 62.9 62.2 87 58.7 0.0 0.0 --- 0.00 30.103
09/11/2003 10:30 p 61.7 61.7 61.7 62.2 61.2 90 58.7 0.0 0.0 --- 0.00 30.102
09/11/2003 11:00 p 60.8 60.8 60.8 61.2 60.6 92 58.5 0.0 0.0 --- 0.00 30.101
09/11/2003 11:30 p 60.8 60.8 60.8 61.3 60.7 88 57.2 0.0 0.0 --- 0.00 30.100
09/12/2003 12:00 a 62.5 62.5 62.5 63.4 61.3 81 56.6 0.0 0.0 --- 0.00 30.111
09/12/2003 12:30 a 63.8 63.8 63.8 64.1 63.4 77 56.5 0.0 0.0 --- 0.00 30.118
09/12/2003 1:00 a 63.5 63.5 63.5 64.0 63.3 77 56.2 0.0 0.0 --- 0.00 30.125
09/12/2003 1:30 a 62.8 62.8 62.8 63.3 62.4 80 56.5 0.0 0.0 --- 0.00 30.115
09/12/2003 2:00 a 62.1 62.1 62.1 62.5 61.5 83 56.9 0.0 0.0 --- 0.00 30.115
09/12/2003 2:30 a 61.2 61.2 61.2 61.5 60.9 86 57.0 0.0 0.0 --- 0.00 30.112
09/12/2003 3:00 a 60.5 60.5 60.5 60.9 60.1 88 56.9 0.0 0.0 --- 0.00 30.109
09/12/2003 3:30 a 59.9 59.9 59.9 60.1 59.7 90 57.0 0.0 0.0 --- 0.00 30.102
09/12/2003 4:00 a 59.7 59.7 59.7 59.8 59.7 91 57.1 0.0 0.0 --- 0.00 30.100
09/12/2003 4:30 a 59.6 59.6 59.6 59.7 59.4 92 57.3 0.0 0.0 --- 0.00 30.108
09/12/2003 5:00 a 59.3 59.3 59.3 59.4 59.2 92 57.0 0.0 0.0 --- 0.00 30.107
09/12/2003 5:30 a 59.3 59.3 59.3 59.4 59.0 92 57.0 0.0 0.0 --- 0.00 30.109
09/12/2003 6:00 a 58.6 58.6 58.6 59.0 58.3 93 56.6 0.0 0.0 --- 0.00 30.112
09/12/2003 6:30 a 58.2 58.2 58.2 58.3 58.2 93 56.2 0.0 0.0 --- 0.00 30.119
09/12/2003 7:00 a 58.7 58.7 58.7 59.6 58.3 90 55.8 0.0 0.0 --- 0.00 30.126
09/12/2003 7:30 a 61.0 61.0 61.0 62.0 59.6 84 56.1 0.0 1.0 ENE 0.00 30.132
09/12/2003 8:00 a 62.6 62.6 62.6 63.1 62.0 81 56.7 0.0 2.0 N 0.00 30.143
09/12/2003 8:30 a 63.6 63.6 63.6 64.3 63.1 76 55.9 0.0 2.0 N 0.00 30.134
09/12/2003 9:00 a 67.1 67.1 67.1 70.2 64.3 62 53.7 0.0 5.0 N 0.00 30.138
09/12/2003 9:30 a 67.2 67.2 67.2 67.7 66.9 61 53.3 0.0 3.0 N 0.00 30.145
09/12/2003 10:00 a 67.9 67.9 67.9 68.0 67.7 56 51.6 0.0 3.0 NE 0.00 30.141
09/12/2003 10:30 a 68.0 68.7 68.7 69.3 68.0 55 51.9 0.0 2.0 N 0.00 30.141
09/12/2003 11:00 a 67.2 69.3 69.3 69.8 69.1 51 50.4 0.0 4.0 N 0.00 30.134
09/12/2003 11:30 a 68.6 70.0 70.0 70.2 69.7 53 52.1 0.0 3.0 NNW 0.00 30.131
09/12/2003 12:00 p 70.0 70.6 70.6 71.3 70.1 55 53.7 0.0 3.0 N 0.00 30.116
09/12/2003 12:30 p 69.6 71.3 71.3 72.2 70.7 53 53.3 0.0 3.0 NW 0.00 30.112
09/12/2003 1:00 p 76.6 77.8 77.8 83.2 72.2 36 48.7 0.0 3.0 N 0.00 30.111
09/12/2003 1:30 p 80.0 79.9 79.9 83.5 76.5 45 56.7 0.0 3.0 NNE 0.00 30.104
09/12/2003 2:00 p 76.0 75.5 75.5 76.4 74.4 50 55.6 0.0 4.0 N 0.00 30.101
09/12/2003 2:30 p 73.0 73.0 73.0 74.4 71.4 56 56.4 0.0 3.0 NNW 0.00 30.093
09/12/2003 3:00 p 71.0 70.9 70.9 71.4 70.7 60 56.3 0.0 2.0 N 0.00 30.084
09/12/2003 3:30 p 71.0 71.4 71.4 71.8 70.9 63 58.2 0.0 3.0 NNW 0.00 30.082
09/12/2003 4:00 p 71.0 71.3 71.3 72.3 70.5 62 57.6 0.0 4.0 N 0.00 30.077
09/12/2003 4:30 p 70.0 70.3 70.3 70.7 69.9 64 57.6 0.0 4.0 N 0.00 30.077
09/12/2003 5:00 p 70.0 69.9 69.9 70.0 69.8 66 58.0 0.0 1.0 NNW 0.00 30.067
09/12/2003 5:30 p 70.0 69.8 69.8 70.0 69.4 69 59.2 0.0 2.0 NNW 0.00 30.070
09/12/2003 6:00 p 69.6 68.8 68.8 69.4 68.3 73 59.8 0.0 2.0 NNW 0.00 30.072
09/12/2003 6:30 p 67.9 67.9 67.9 68.3 67.6 73 58.9 0.0 2.0 NNW 0.00 30.064
09/12/2003 7:00 p 67.1 67.1 67.1 67.6 67.0 73 58.2 0.0 1.0 N 0.00 30.066
09/12/2003 7:30 p 66.9 66.9 66.9 67.1 66.7 72 57.6 0.0 1.0 --- 0.00 30.058
09/12/2003 8:00 p 66.7 66.7 66.7 66.8 66.6 71 57.0 0.0 1.0 ESE 0.00 30.059
09/12/2003 8:30 p 66.4 66.4 66.4 66.7 66.2 72 57.1 0.0 2.0 SE 0.00 30.064
09/12/2003 9:00 p 66.3 66.3 66.3 66.3 66.2 74 57.8 0.0 1.0 NNW 0.00 30.071
09/12/2003 9:30 p 66.0 66.0 66.0 66.2 65.8 75 57.9 0.0 2.0 NNE 0.00 30.065
09/12/2003 10:00 p 65.8 65.8 65.8 65.8 65.7 76 58.0 0.0 2.0 N 0.00 30.069
09/12/2003 10:30 p 65.8 65.8 65.8 65.9 65.7 77 58.4 0.0 2.0 ENE 0.00 30.072
09/12/2003 11:00 p 65.6 65.6 65.6 65.8 65.5 78 58.6 0.0 1.0 --- 0.00 30.062
09/12/2003 11:30 p 65.7 65.7 65.7 65.8 65.5 80 59.4 0.0 3.0 ESE 0.00 30.057
09/13/2003 12:00 a 65.2 65.2 65.2 65.8 64.4 90 62.2 0.0 0.0 --- 0.00 30.050
09/13/2003 12:30 a 64.3 64.3 64.3 64.4 64.1 89 61.0 0.0 1.0 ESE 0.00 30.047
09/13/2003 1:00 a 64.5 64.5 64.5 64.7 64.2 88 60.9 0.0 1.0 --- 0.00 30.055
09/13/2003 1:30 a 65.0 65.0 65.0 65.4 64.7 87 61.0 0.0 0.0 --- 0.00 30.051
09/13/2003 2:00 a 65.5 65.5 65.5 65.6 65.4 89 62.2 0.0 0.0 --- 0.00 30.040
09/13/2003 2:30 a 65.0 65.0 65.0 65.4 64.5 94 63.2 0.0 0.0 --- 0.00 30.036
09/13/2003 3:00 a 64.1 64.1 64.1 64.5 63.6 97 63.2 0.0 0.0 --- 0.04 30.036
09/13/2003 3:30 a 63.3 63.3 63.3 63.7 62.9 98 62.7 0.0 0.0 --- 0.02 30.021
09/13/2003 4:00 a 62.6 62.6 62.6 62.9 62.4 98 62.0 0.0 0.0 --- 0.02 30.015
09/13/2003 4:30 a 62.2 62.2 62.2 62.4 62.0 98 61.6 0.0 1.0 --- 0.05 30.018
09/13/2003 5:00 a 62.0 62.0 62.0 62.0 61.9 98 61.4 0.0 1.0 ESE 0.02 30.015
09/13/2003 5:30 a 62.1 62.1 62.1 62.2 62.0 99 61.8 0.0 1.0 --- 0.02 30.014
09/13/2003 6:00 a 62.3 62.3 62.3 62.4 62.2 99 62.0 0.0 2.0 ESE 0.01 30.017
09/13/2003 6:30 a 62.4 62.4 62.4 62.6 62.3 99 62.1 0.0 1.0 ESE 0.00 30.025
09/13/2003 7:00 a 62.8 62.8 62.8 63.0 62.5 99 62.5 0.0 2.0 ESE 0.00 30.026
09/13/2003 7:30 a 63.2 63.2 63.2 63.4 63.0 99 62.9 0.0 1.0 NNE 0.00 30.026
09/13/2003 8:00 a 63.6 63.6 63.6 63.9 63.4 99 63.3 0.0 2.0 --- 0.00 30.026
09/13/2003 8:30 a 64.1 64.1 64.1 64.4 63.9 99 63.8 0.0 2.0 NNE 0.00 30.029
09/13/2003 9:00 a 64.6 64.6 64.6 64.9 64.4 99 64.3 0.0 1.0 NE 0.01 30.041
09/13/2003 9:30 a 65.2 65.2 65.2 65.7 64.9 99 64.9 0.0 3.0 SE 0.01 30.050
09/13/2003 10:00 a 65.6 65.6 65.6 65.7 65.5 99 65.3 0.0 2.0 SE 0.01 30.057
09/13/2003 10:30 a 66.1 66.1 66.1 66.3 65.6 99 65.8 0.0 2.0 NNE 0.02 30.058
09/13/2003 11:00 a 66.3 66.3 66.3 66.4 66.2 99 66.0 0.0 1.0 --- 0.01 30.057
09/13/2003 11:30 a 66.3 66.3 66.3 66.4 66.2 99 66.0 0.0 1.0 --- 0.04 30.057
09/13/2003 12:00 p 66.7 66.7 66.7 67.1 66.3 99 66.4 0.0 0.0 --- 0.00 30.058
09/13/2003 12:30 p 67.4 67.4 67.4 67.7 67.1 99 67.1 0.0 0.0 --- 0.00 30.055
09/13/2003 1:00 p 70.0 68.0 68.0 68.2 67.7 99 67.7 0.0 0.0 --- 0.00 30.058
09/13/2003 1:30 p 70.0 68.2 68.2 68.4 68.1 99 67.9 0.0 0.0 --- 0.00 30.052
09/13/2003 2:00 p 71.9 68.5 68.5 68.7 68.3 99 68.2 0.0 0.0 --- 0.00 30.048
09/13/2003 2:30 p 71.9 69.0 69.0 69.2 68.7 99 68.7 0.0 1.0 NNE 0.00 30.040
09/13/2003 3:00 p 73.8 70.1 70.1 70.6 69.2 99 69.8 0.0 4.0 N 0.00 30.033
09/13/2003 3:30 p 74.8 70.9 70.9 71.1 70.6 99 70.6 0.0 2.0 N 0.00 30.025
09/13/2003 4:00 p 74.8 70.9 70.9 71.1 70.8 99 70.6 0.0 3.0 N 0.00 30.029
09/13/2003 4:30 p 75.0 70.9 70.9 71.0 70.8 100 70.9 0.0 3.0 N 0.00 30.019
09/13/2003 5:00 p 74.8 70.9 70.9 71.0 70.8 99 70.6 0.0 2.0 N 0.00 30.026
09/13/2003 5:30 p 74.8 70.9 70.9 71.0 70.7 99 70.6 0.0 2.0 ENE 0.00 30.028
09/13/2003 6:00 p 74.8 70.7 70.7 70.8 70.6 99 70.4 0.0 2.0 N 0.00 30.037
09/13/2003 6:30 p 74.8 70.6 70.6 70.7 70.6 99 70.3 0.0 3.0 NNW 0.00 30.040
09/13/2003 7:00 p 74.8 70.5 70.5 70.6 70.4 99 70.2 0.0 1.0 NNW 0.03 30.036
09/13/2003 7:30 p 73.8 70.4 70.4 70.5 70.0 99 70.1 0.0 1.0 NNE 0.00 30.042
09/13/2003 8:00 p 73.8 69.8 69.8 70.1 69.7 99 69.5 0.0 0.0 --- 0.00 30.054
09/13/2003 8:30 p 73.8 70.1 70.1 70.6 69.7 99 69.8 0.0 2.0 N 0.00 30.054
09/13/2003 9:00 p 74.8 70.6 70.6 70.6 70.5 99 70.3 0.0 1.0 N 0.00 30.062
09/13/2003 9:30 p 73.8 70.4 70.4 70.6 70.3 99 70.1 0.0 2.0 NE 0.00 30.063
09/13/2003 10:00 p 73.8 70.3 70.3 70.4 70.3 99 70.0 0.0 1.0 NNE 0.00 30.066
09/13/2003 10:30 p 73.8 70.3 70.3 70.4 70.3 99 70.0 0.0 2.0 N 0.00 30.069
09/13/2003 11:00 p 73.8 70.2 70.2 70.3 70.1 99 69.9 0.0 2.0 N 0.00 30.067
09/13/2003 11:30 p 73.8 70.1 70.1 70.2 70.1 99 69.8 0.0 1.0 N 0.00 30.067
09/14/2003 12:00 a 73.8 70.1 70.1 70.2 70.0 99 69.8 0.0 1.0 N 0.00 30.064
09/14/2003 12:30 a 73.8 70.1 70.1 70.2 70.0 99 69.8 0.0 1.0 N 0.00 30.067
09/14/2003 1:00 a 73.8 70.4 70.4 70.5 70.2 99 70.1 0.0 0.0 --- 0.00 30.065
09/14/2003 1:30 a 73.8 70.1 70.1 70.5 69.8 99 69.8 0.0 0.0 --- 0.00 30.060
09/14/2003 2:00 a 73.8 69.7 69.7 69.8 69.7 99 69.4 0.0 0.0 --- 0.00 30.060
09/14/2003 2:30 a 73.8 69.8 69.8 69.8 69.7 99 69.5 0.0 0.0 --- 0.01 30.047
09/14/2003 3:00 a 73.8 69.8 69.8 69.9 69.7 99 69.5 0.0 0.0 --- 0.00 30.049
09/14/2003 3:30 a 74.0 69.9 69.9 70.1 69.8 100 69.9 0.0 0.0 --- 0.00 30.039
09/14/2003 4:00 a 73.8 70.0 70.0 70.1 69.9 99 69.7 0.0 0.0 --- 0.00 30.037
09/14/2003 4:30 a 73.8 69.9 69.9 70.0 69.8 99 69.6 0.0 1.0 --- 0.12 30.037
09/14/2003 5:00 a 74.0 69.8 69.8 69.9 69.7 100 69.8 0.0 0.0 --- 0.01 30.042
09/14/2003 5:30 a 73.8 69.8 69.8 69.8 69.7 99 69.5 0.0 0.0 --- 0.00 30.046
09/14/2003 6:00 a 73.8 69.9 69.9 70.0 69.8 99 69.6 0.0 0.0 --- 0.00 30.052
09/14/2003 6:30 a 73.8 70.1 70.1 70.3 69.9 99 69.8 0.0 0.0 --- 0.00 30.060
09/14/2003 7:00 a 73.8 70.4 70.4 70.5 70.2 99 70.1 0.0 0.0 --- 0.00 30.063
09/14/2003 7:30 a 74.8 70.7 70.7 70.9 70.5 99 70.4 0.0 0.0 --- 0.00 30.067
09/14/2003 8:00 a 75.8 71.5 71.5 72.3 70.9 99 71.2 0.0 0.0 --- 0.00 30.064
09/14/2003 8:30 a 76.8 72.9 72.9 73.3 72.3 99 72.6 0.0 1.0 --- 0.00 30.067
09/14/2003 9:00 a 77.8 73.5 73.5 73.7 73.2 99 73.2 0.0 1.0 N 0.00 30.067
09/14/2003 9:30 a 77.8 73.8 73.8 75.1 73.3 99 73.5 0.0 2.0 N 0.00 30.066
09/14/2003 10:00 a 78.9 75.3 75.3 75.5 74.9 99 75.0 0.0 2.0 N 0.00 30.066
09/14/2003 10:30 a 80.0 76.0 76.0 77.0 75.1 99 75.7 0.0 3.0 NNW 0.00 30.064
09/14/2003 11:00 a 81.9 77.3 77.3 77.8 76.9 99 77.0 0.0 3.0 NNW 0.00 30.056
09/14/2003 11:30 a 83.8 77.9 77.9 78.4 77.4 98 77.3 0.0 3.0 N 0.00 30.049
09/14/2003 12:00 p 86.0 79.1 79.1 79.6 78.3 95 77.5 0.0 3.0 NW 0.00 30.049
09/14/2003 12:30 p 87.6 79.7 79.7 80.4 79.3 92 77.2 0.0 3.0 NW 0.00 30.045
09/14/2003 1:00 p 89.0 82.7 82.7 85.7 80.4 70 71.9 0.0 2.0 NNW 0.00 30.031
09/14/2003 1:30 p 93.8 87.4 87.4 90.1 84.7 62 72.8 0.0 3.0 NNW 0.00 30.018
09/14/2003 2:00 p 97.4 88.2 88.2 93.2 84.8 66 75.4 0.0 3.0 NNW 0.00 30.015
09/14/2003 2:30 p 88.2 84.0 84.0 84.9 83.3 63 70.1 1.0 4.0 NNW 0.00 30.005
09/14/2003 3:00 p 89.4 83.6 83.6 84.8 81.9 66 71.0 1.0 4.0 NNW 0.00 29.998
09/14/2003 3:30 p 88.6 83.0 83.0 84.1 82.2 69 71.8 1.0 5.0 NNW 0.00 29.993
09/14/2003 4:00 p 87.8 83.1 83.1 84.0 82.3 67 71.0 1.0 5.0 NNW 0.00 29.991
09/14/2003 4:30 p 88.0 82.1 82.1 83.3 80.5 75 73.4 1.0 6.0 NNW 0.00 29.991
09/14/2003 5:00 p 84.2 80.4 80.4 80.9 80.0 76 72.1 0.0 4.0 NNW 0.00 29.994
09/14/2003 5:30 p 83.0 79.4 79.4 80.6 78.5 80 72.7 1.0 5.0 NNW 0.00 29.993
09/14/2003 6:00 p 81.0 77.3 77.3 78.5 76.6 84 72.1 1.0 5.0 NNW 0.00 29.999
09/14/2003 6:30 p 81.0 76.5 76.5 76.6 76.4 84 71.3 1.0 3.0 NNW 0.00 30.007
09/14/2003 7:00 p 79.7 76.0 76.0 76.4 75.5 87 71.9 1.0 3.0 NNW 0.00 30.009
09/14/2003 7:30 p 77.8 75.2 75.2 75.5 74.9 88 71.4 1.0 3.0 N 0.00 30.020
09/14/2003 8:00 p 77.9 74.5 74.5 74.9 74.2 89 71.0 0.0 2.0 NNW 0.00 30.025
09/14/2003 8:30 p 76.0 73.9 73.9 74.2 73.6 90 70.8 0.0 2.0 WNW 0.00 30.039
09/14/2003 9:00 p 76.0 73.9 73.9 73.9 73.7 90 70.8 0.0 2.0 NW 0.00 30.042
09/14/2003 9:30 p 76.0 73.9 73.9 73.9 73.8 89 70.5 0.0 3.0 NNW 0.00 30.040
09/14/2003 10:00 p 76.4 73.5 73.5 73.8 73.1 92 71.0 0.0 2.0 N 0.00 30.036
09/14/2003 10:30 p 75.4 73.0 73.0 73.1 72.9 92 70.5 0.0 2.0 N 0.00 30.029
09/14/2003 11:00 p 75.4 72.9 72.9 73.1 72.7 92 70.4 0.0 1.0 N 0.00 30.027
09/14/2003 11:30 p 75.2 72.9 72.9 73.0 72.7 91 70.1 0.0 1.0 N 0.00 30.015
09/15/2003 12:00 a 75.2 73.0 73.0 73.1 73.0 91 70.2 0.0 2.0 N 0.00 30.012
09/15/2003 12:30 a 75.2 73.1 73.1 73.2 73.0 91 70.3 0.0 2.0 N 0.00 30.011
09/15/2003 1:00 a 75.2 73.0 73.0 73.1 72.8 91 70.2 0.0 2.0 N 0.00 30.012
09/15/2003 1:30 a 75.4 72.5 72.5 72.8 72.2 92 70.0 0.0 2.0 N 0.00 30.004
09/15/2003 2:00 a 74.6 72.3 72.3 72.4 72.1 93 70.2 0.0 2.0 N 0.00 29.994
09/15/2003 2:30 a 74.8 71.9 71.9 72.1 71.5 94 70.1 0.0 2.0 WNW 0.00 29.982
09/15/2003 3:00 a 74.0 71.2 71.2 71.6 71.1 95 69.7 0.0 1.0 --- 0.00 29.978
09/15/2003 3:30 a 74.0 71.1 71.1 71.1 71.0 95 69.6 0.0 1.0 WNW 0.00 29.968
09/15/2003 4:00 a 74.2 70.8 70.8 71.0 70.6 96 69.6 0.0 0.0 --- 0.00 29.966
09/15/2003 4:30 a 74.0 71.0 71.0 71.2 70.7 95 69.5 0.0 0.0 --- 0.00 29.955
09/15/2003 5:00 a 74.2 70.9 70.9 71.2 70.7 96 69.7 0.0 0.0 --- 0.00 29.960
09/15/2003 5:30 a 74.2 70.9 70.9 71.0 70.6 96 69.7 0.0 0.0 --- 0.00 29.960
09/15/2003 6:00 a 74.4 70.5 70.5 70.9 70.2 97 69.6 0.0 0.0 --- 0.00 29.947
09/15/2003 6:30 a 73.4 70.3 70.3 70.4 70.1 97 69.4 0.0 0.0 --- 0.00 29.963
09/15/2003 7:00 a 74.4 70.8 70.8 71.3 70.3 97 69.9 0.0 0.0 --- 0.00 29.975
09/15/2003 7:30 a 75.0 71.6 71.6 72.1 71.3 95 70.1 0.0 1.0 WNW 0.00 29.967
09/15/2003 8:00 a 76.2 72.6 72.6 73.0 72.1 96 71.4 0.0 2.0 WNW 0.00 29.968
09/15/2003 8:30 a 75.8 72.9 72.9 73.0 72.9 94 71.1 0.0 3.0 NNW 0.00 29.979
09/15/2003 9:00 a 75.6 72.8 72.8 73.0 72.7 93 70.7 0.0 3.0 N 0.00 29.989
09/15/2003 9:30 a 75.4 73.0 73.0 73.1 72.8 92 70.5 0.0 3.0 NNW 0.00 29.979
09/15/2003 10:00 a 75.0 73.3 73.3 73.7 72.9 90 70.2 0.0 2.0 NNW 0.00 29.965
09/15/2003 10:30 a 77.5 74.6 74.6 75.5 73.6 85 69.8 0.0 2.0 NNW 0.00 29.964
09/15/2003 11:00 a 79.4 76.0 76.0 76.6 75.5 84 70.8 0.0 2.0 NNW 0.00 29.958
09/15/2003 11:30 a 81.0 76.5 76.5 77.0 76.1 84 71.3 0.0 1.0 NNW 0.00 29.954
09/15/2003 12:00 p 81.0 76.6 76.6 77.4 76.1 81 70.3 0.0 2.0 NNW 0.00 29.944
09/15/2003 12:30 p 81.4 78.2 78.2 78.8 77.4 77 70.4 0.0 2.0 NNW 0.00 29.933
09/15/2003 1:00 p 82.4 79.1 79.1 79.5 78.8 77 71.3 0.0 3.0 N 0.00 29.924
09/15/2003 1:30 p 82.2 78.8 78.8 79.0 78.4 76 70.6 1.0 3.0 NNW 0.00 29.923
09/15/2003 2:00 p 81.6 78.0 78.0 78.4 77.5 78 70.6 0.0 2.0 NNW 0.00 29.913
09/15/2003 2:30 p 81.0 77.0 77.0 77.6 76.6 81 70.7 0.0 3.0 N 0.00 29.907
09/15/2003 3:00 p 81.0 76.7 76.7 76.8 76.5 81 70.4 0.0 3.0 N 0.00 29.900
09/15/2003 3:30 p 79.1 75.9 75.9 76.7 75.7 81 69.7 0.0 3.0 NNW 0.00 29.890
09/15/2003 4:00 p 79.1 75.5 75.5 75.9 74.9 81 69.3 1.0 3.0 NNW 0.00 29.879
09/15/2003 4:30 p 76.0 74.3 74.3 75.0 73.4 88 70.5 0.0 3.0 NNW 0.00 29.873
09/15/2003 5:00 p 75.0 73.0 73.0 73.5 72.8 90 69.9 0.0 2.0 NNW 0.00 29.868
09/15/2003 5:30 p 75.2 72.9 72.9 73.1 72.6 91 70.1 0.0 2.0 NNW 0.00 29.854
09/15/2003 6:00 p 74.6 72.0 72.0 72.6 71.7 93 69.9 0.0 2.0 NNW 0.00 29.855
09/15/2003 6:30 p 74.0 71.4 71.4 71.8 71.0 95 69.9 0.0 2.0 NNW 0.00 29.852
09/15/2003 7:00 p 74.4 70.7 70.7 71.0 70.5 97 69.8 0.0 1.0 --- 0.00 29.849
09/15/2003 7:30 p 73.6 70.2 70.2 70.6 70.0 98 69.6 0.0 1.0 N 0.16 29.847
09/15/2003 8:00 p 73.8 70.1 70.1 70.2 70.0 99 69.8 0.0 0.0 --- 0.12 29.852
09/15/2003 8:30 p 73.8 69.9 69.9 70.4 68.6 99 69.6 0.0 3.0 N 0.42 29.860
09/15/2003 9:00 p 71.9 68.5 68.5 68.7 68.3 99 68.2 0.0 2.0 SSE 0.16 29.857
09/15/2003 9:30 p 70.0 68.3 68.3 68.4 68.3 99 68.0 0.0 2.0 SSE 0.03 29.859
09/15/2003 10:00 p 70.0 68.2 68.2 68.4 68.1 99 67.9 0.0 0.0 --- 0.03 29.856
09/15/2003 10:30 p 67.9 67.9 67.9 68.1 67.9 99 67.6 0.0 0.0 --- 0.02 29.837
09/15/2003 11:00 p 70.0 68.0 68.0 68.0 67.9 99 67.7 0.0 0.0 --- 0.00 29.822
09/15/2003 11:30 p 70.0 68.0 68.0 68.1 67.9 99 67.7 0.0 0.0 --- 0.00 29.819
09/16/2003 12:00 a 67.8 67.8 67.8 68.0 67.3 99 67.5 0.0 0.0 --- 0.00 29.817
09/16/2003 12:30 a 67.0 67.0 67.0 67.3 66.7 99 66.7 0.0 0.0 --- 0.00 29.815
09/16/2003 1:00 a 67.2 67.2 67.2 67.3 67.0 99 66.9 0.0 0.0 --- 0.00 29.809
09/16/2003 1:30 a 67.1 67.1 67.1 67.2 67.0 99 66.8 0.0 0.0 --- 0.00 29.815
09/16/2003 2:00 a 67.3 67.3 67.3 67.5 67.1 99 67.0 0.0 0.0 --- 0.00 29.821
09/16/2003 2:30 a 67.5 67.5 67.5 67.6 67.4 100 67.5 0.0 0.0 --- 0.00 29.822
09/16/2003 3:00 a 67.5 67.5 67.5 67.6 67.4 99 67.2 0.0 0.0 --- 0.00 29.817
09/16/2003 3:30 a 67.2 67.2 67.2 67.5 67.1 99 66.9 0.0 0.0 --- 0.00 29.818
09/16/2003 4:00 a 66.9 66.9 66.9 67.3 66.5 99 66.6 0.0 0.0 --- 0.00 29.819
09/16/2003 4:30 a 66.2 66.2 66.2 66.6 66.0 99 65.9 0.0 0.0 --- 0.00 29.822
09/16/2003 5:00 a 65.7 65.7 65.7 66.0 65.5 100 65.7 0.0 0.0 --- 0.00 29.822
09/16/2003 5:30 a 65.2 65.2 65.2 65.5 65.0 100 65.2 0.0 0.0 --- 0.00 29.837
09/16/2003 6:00 a 64.7 64.7 64.7 65.0 64.2 100 64.7 0.0 1.0 SE 0.00 29.851
09/16/2003 6:30 a 63.4 63.4 63.4 64.1 62.7 99 63.1 0.0 1.0 SE 0.00 29.867
09/16/2003 7:00 a 62.1 62.1 62.1 62.7 61.3 99 61.8 0.0 1.0 E 0.00 29.884
09/16/2003 7:30 a 60.8 60.8 60.8 61.3 60.3 100 60.8 0.0 1.0 E 0.00 29.893
09/16/2003 8:00 a 60.3 60.3 60.3 60.5 60.3 100 60.3 0.0 1.0 --- 0.00 29.903
09/16/2003 8:30 a 61.1 61.1 61.1 61.9 60.5 99 60.8 0.0 2.0 ESE 0.00 29.910
09/16/2003 9:00 a 64.9 64.9 64.9 67.8 61.9 100 64.9 0.0 1.0 E 0.00 29.916
09/16/2003 9:30 a 65.7 65.7 65.7 66.8 65.2 99 65.4 0.0 1.0 E 0.00 29.927
09/16/2003 10:00 a 65.9 65.9 65.9 66.6 65.5 99 65.6 0.0 2.0 E 0.00 29.931
09/16/2003 10:30 a 67.5 67.5 67.5 68.6 66.6 99 67.2 0.0 2.0 SE 0.00 29.933
09/16/2003 11:00 a 71.7 69.3 69.3 69.9 68.5 97 68.4 0.0 2.0 ESE 0.00 29.938
09/16/2003 11:30 a 72.6 70.8 70.8 71.5 69.9 78 63.6 0.0 3.0 SE 0.00 29.936
09/16/2003 12:00 p 72.0 72.2 72.2 72.8 71.5 67 60.6 0.0 2.0 SE 0.00 29.928
09/16/2003 12:30 p 73.3 73.4 73.4 74.3 72.7 63 60.1 0.0 3.0 ESE 0.00 29.927
09/16/2003 1:00 p 81.6 81.8 81.8 89.5 74.3 38 53.7 0.0 3.0 ESE 0.00 29.924
09/16/2003 1:30 p 91.6 90.7 90.7 92.0 89.6 33 57.7 0.0 4.0 ESE 0.00 29.921
09/16/2003 2:00 p 87.0 86.0 86.0 90.5 80.3 45 62.2 0.0 2.0 ESE 0.00 29.914
09/16/2003 2:30 p 79.0 78.9 78.9 80.3 77.9 47 57.0 0.0 2.0 ESE 0.00 29.909
09/16/2003 3:00 p 77.4 78.2 78.2 78.4 77.9 44 54.5 0.0 5.0 ESE 0.00 29.910
09/16/2003 3:30 p 77.5 77.9 77.9 78.1 77.8 45 54.9 0.0 3.0 ESE 0.00 29.908
09/16/2003 4:00 p 77.5 77.6 77.6 78.0 77.4 45 54.6 0.0 3.0 ESE 0.00 29.908
09/16/2003 4:30 p 76.4 76.9 76.9 77.5 76.3 47 55.2 0.0 2.0 ESE 0.00 29.917
09/16/2003 5:00 p 75.6 75.7 75.7 76.3 75.1 48 54.6 0.0 2.0 ESE 0.00 29.924
09/16/2003 5:30 p 75.0 74.5 74.5 75.1 74.0 51 55.2 0.0 1.0 ESE 0.00 29.926
09/16/2003 6:00 p 73.0 73.4 73.4 74.0 72.9 56 56.8 0.0 2.0 ESE 0.00 29.925
09/16/2003 6:30 p 72.0 71.6 71.6 72.9 70.2 65 59.2 0.0 0.0 --- 0.00 29.930
09/16/2003 7:00 p 68.6 68.3 68.3 70.2 66.6 73 59.3 0.0 0.0 --- 0.00 29.934
09/16/2003 7:30 p 65.2 65.2 65.2 66.6 64.1 80 58.9 0.0 0.0 --- 0.00 29.947
09/16/2003 8:00 p 63.2 63.2 63.2 64.1 62.3 85 58.6 0.0 0.0 --- 0.00 29.957
09/16/2003 8:30 p 61.5 61.5 61.5 62.3 60.8 88 57.9 0.0 0.0 --- 0.00 29.971
09/16/2003 9:00 p 60.2 60.2 60.2 60.8 59.7 91 57.6 0.0 0.0 --- 0.00 29.976
09/16/2003 9:30 p 59.3 59.3 59.3 59.7 59.0 93 57.3 0.0 0.0 --- 0.00 29.979
09/16/2003 10:00 p 58.6 58.6 58.6 59.0 58.3 94 56.9 0.0 0.0 --- 0.00 29.988
09/16/2003 10:30 p 58.2 58.2 58.2 58.4 57.9 93 56.2 0.0 0.0 --- 0.00 29.994
09/16/2003 11:00 p 57.7 57.7 57.7 57.9 57.4 93 55.7 0.0 0.0 --- 0.00 30.004
09/16/2003 11:30 p 57.1 57.1 57.1 57.4 56.7 93 55.1 0.0 0.0 --- 0.00 30.007
09/17/2003 12:00 a 56.6 56.6 56.6 56.8 56.4 94 54.9 0.0 0.0 --- 0.00 30.012
09/17/2003 12:30 a 56.4 56.4 56.4 56.5 56.3 94 54.7 0.0 0.0 --- 0.00 30.018
09/17/2003 1:00 a 56.1 56.1 56.1 56.3 55.8 95 54.7 0.0 0.0 --- 0.00 30.022
09/17/2003 1:30 a 56.2 56.2 56.2 56.6 55.9 94 54.5 0.0 0.0 --- 0.00 30.025
09/17/2003 2:00 a 55.6 55.6 55.6 55.9 55.1 94 53.9 0.0 0.0 --- 0.00 30.031
09/17/2003 2:30 a 54.9 54.9 54.9 55.1 54.7 95 53.5 0.0 0.0 --- 0.00 30.032
09/17/2003 3:00 a 54.6 54.6 54.6 54.7 54.5 95 53.2 0.0 0.0 --- 0.00 30.043
09/17/2003 3:30 a 54.3 54.3 54.3 54.5 54.1 95 52.9 0.0 0.0 --- 0.00 30.045
09/17/2003 4:00 a 54.1 54.1 54.1 54.2 54.0 95 52.7 0.0 0.0 --- 0.00 30.048
09/17/2003 4:30 a 53.8 53.8 53.8 54.1 53.5 96 52.7 0.0 0.0 --- 0.00 30.053
09/17/2003 5:00 a 53.1 53.1 53.1 53.5 52.9 96 52.0 0.0 0.0 --- 0.00 30.051
09/17/2003 5:30 a 52.7 52.7 52.7 53.0 52.5 96 51.6 0.0 0.0 --- 0.00 30.058
09/17/2003 6:00 a 52.5 52.5 52.5 52.6 52.4 96 51.4 0.0 0.0 --- 0.00 30.071
09/17/2003 6:30 a 52.4 52.4 52.4 52.5 52.3 96 51.3 0.0 0.0 --- 0.00 30.078
09/17/2003 7:00 a 52.4 52.4 52.4 52.5 52.4 96 51.3 0.0 0.0 --- 0.00 30.091
09/17/2003 7:30 a 52.8 52.8 52.8 53.4 52.4 97 52.0 0.0 0.0 --- 0.00 30.099
09/17/2003 8:00 a 54.5 54.5 54.5 56.0 53.3 97 53.7 0.0 0.0 --- 0.00 30.107
09/17/2003 8:30 a 57.9 57.9 57.9 59.9 56.0 91 55.3 0.0 0.0 --- 0.00 30.114
09/17/2003 9:00 a 62.7 62.7 62.7 65.4 59.9 80 56.4 0.0 0.0 --- 0.00 30.116
09/17/2003 9:30 a 66.7 66.7 66.7 68.6 65.4 67 55.4 0.0 0.0 --- 0.00 30.118
09/17/2003 10:00 a 69.0 69.1 69.1 69.7 68.5 64 56.4 0.0 0.0 --- 0.00 30.123
09/17/2003 10:30 a 70.0 69.8 69.8 70.2 69.4 63 56.7 0.0 0.0 --- 0.00 30.125
09/17/2003 11:00 a 71.0 70.7 70.7 71.3 70.1 61 56.6 0.0 0.0 --- 0.00 30.122
09/17/2003 11:30 a 71.4 71.9 71.9 72.4 71.3 54 54.4 0.0 0.0 --- 0.00 30.122
09/17/2003 12:00 p 73.0 72.8 72.8 72.9 72.4 51 53.6 0.0 0.0 --- 0.00 30.117
09/17/2003 12:30 p 72.4 73.4 73.4 74.0 72.9 47 52.0 0.0 0.0 --- 0.00 30.118
09/17/2003 1:00 p 77.2 79.2 79.2 88.8 74.0 31 46.0 0.0 0.0 --- 0.00 30.108
09/17/2003 1:30 p 88.1 90.2 90.2 91.7 88.8 27 51.7 0.0 0.0 --- 0.00 30.104
09/17/2003 2:00 p 86.0 85.7 85.7 92.0 79.3 40 58.6 0.0 0.0 --- 0.00 30.101
09/17/2003 2:30 p 77.3 78.3 78.3 79.3 77.7 43 54.0 0.0 0.0 --- 0.00 30.093
09/17/2003 3:00 p 75.8 77.1 77.1 77.7 76.5 44 53.5 0.0 0.0 --- 0.00 30.096
09/17/2003 3:30 p 76.4 76.5 76.5 76.7 76.3 47 54.8 0.0 0.0 --- 0.00 30.094
09/17/2003 4:00 p 74.8 76.1 76.1 76.6 75.7 44 52.6 0.0 0.0 --- 0.00 30.091
09/17/2003 4:30 p 74.0 75.2 75.2 75.7 74.5 45 52.4 0.0 0.0 --- 0.00 30.094
09/17/2003 5:00 p 73.8 73.7 73.7 74.5 72.9 49 53.4 0.0 0.0 --- 0.00 30.100
09/17/2003 5:30 p 71.7 72.4 72.4 72.9 71.9 57 56.3 0.0 0.0 --- 0.00 30.102
09/17/2003 6:00 p 71.0 71.2 71.2 71.9 70.3 62 57.5 0.0 3.0 N 0.00 30.113
09/17/2003 6:30 p 70.0 69.6 69.6 70.3 68.8 65 57.3 0.0 2.0 NNW 0.00 30.116
09/17/2003 7:00 p 67.4 67.4 67.4 68.8 65.9 71 57.7 0.0 1.0 NNW 0.00 30.110
09/17/2003 7:30 p 64.9 64.9 64.9 65.9 63.8 78 57.9 0.0 0.0 --- 0.00 30.106
09/17/2003 8:00 p 62.9 62.9 62.9 63.8 62.0 84 58.0 0.0 0.0 --- 0.00 30.107
09/17/2003 8:30 p 61.4 61.4 61.4 62.0 60.8 87 57.5 0.0 0.0 --- 0.00 30.111
09/17/2003 9:00 p 60.4 60.4 60.4 60.9 60.1 88 56.8 0.0 0.0 --- 0.00 30.116
09/17/2003 9:30 p 59.9 59.9 59.9 60.1 59.5 91 57.3 0.0 0.0 --- 0.00 30.117
09/17/2003 10:00 p 59.1 59.1 59.1 59.5 58.7 93 57.1 0.0 0.0 --- 0.00 30.112
09/17/2003 10:30 p 58.6 58.6 58.6 58.7 58.5 93 56.6 0.0 0.0 --- 0.00 30.116
09/17/2003 11:00 p 59.3 59.3 59.3 60.0 58.7 86 55.1 0.0 0.0 --- 0.00 30.117
09/17/2003 11:30 p 59.9 59.9 59.9 60.0 59.8 86 55.7 0.0 0.0 --- 0.00 30.123
09/18/2003 12:00 a 59.6 59.6 59.6 59.9 59.4 89 56.4 0.0 0.0 --- 0.00 30.122
09/18/2003 12:30 a 58.7 58.7 58.7 59.4 58.3 89 55.5 0.0 0.0 --- 0.00 30.120
09/18/2003 1:00 a 59.7 59.7 59.7 60.4 58.5 80 53.5 0.0 0.0 --- 0.00 30.116
09/18/2003 1:30 a 60.1 60.1 60.1 60.4 59.7 84 55.3 0.0 0.0 --- 0.00 30.122
09/18/2003 2:00 a 59.5 59.5 59.5 59.7 59.4 89 56.3 0.0 0.0 --- 0.00 30.120
09/18/2003 2:30 a 59.9 59.9 59.9 60.3 59.5 89 56.7 0.0 0.0 --- 0.00 30.115
09/18/2003 3:00 a 60.7 60.7 60.7 61.0 60.3 85 56.2 0.0 0.0 --- 0.00 30.110
09/18/2003 3:30 a 61.8 61.8 61.8 62.3 61.1 81 55.9 0.0 0.0 --- 0.00 30.106
09/18/2003 4:00 a 62.5 62.5 62.5 62.7 62.3 77 55.2 0.0 0.0 --- 0.00 30.101
09/18/2003 4:30 a 62.7 62.7 62.7